<?xml version="1.0" encoding="UTF-8" standalone="no" ?>
<gpx xmlns="http://www.topografix.com/GPX/1/1" xmlns:xsi="http://www.w3.org/2001/XMLSchema-instance" xsi:schemaLocation="http://www.topografix.com/GPX/1/1 http://www.topografix.com/GPX/1/1/gpx.xsd" version="1.1" creator="VisuGPX - https://www.visugpx.com">
  <metadata>
    <name>04 - D+  Villard bas </name>
    <desc><![CDATA[04 - D+  Villard bas - Roche Cline : Villard bas 
2022-10-16]]></desc>
  </metadata>
  <trk>
    <name><![CDATA[Foux Allos Villard bas Roche Cline 2022-10-16-01]]></name>
    <trkseg>
      <trkpt lat="44.23949" lon="6.64562">
        <ele>1693.7</ele>
        <time>2022-10-16T05:34:55Z</time>
      </trkpt>
      <trkpt lat="44.23949" lon="6.64562">
        <ele>1693.7</ele>
        <time>2022-10-16T05:34:56Z</time>
      </trkpt>
      <trkpt lat="44.23958" lon="6.64566">
        <ele>1693.2</ele>
        <time>2022-10-16T05:39:20Z</time>
      </trkpt>
      <trkpt lat="44.23948" lon="6.64565">
        <ele>1693.1</ele>
        <time>2022-10-16T05:40:06Z</time>
      </trkpt>
      <trkpt lat="44.23939" lon="6.64567">
        <ele>1692.5</ele>
        <time>2022-10-16T05:40:18Z</time>
      </trkpt>
      <trkpt lat="44.2393" lon="6.64568">
        <ele>1691.9</ele>
        <time>2022-10-16T05:40:30Z</time>
      </trkpt>
      <trkpt lat="44.23921" lon="6.64561">
        <ele>1690.2</ele>
        <time>2022-10-16T05:40:43Z</time>
      </trkpt>
      <trkpt lat="44.2392" lon="6.64548">
        <ele>1688.6</ele>
        <time>2022-10-16T05:40:57Z</time>
      </trkpt>
      <trkpt lat="44.23911" lon="6.64546">
        <ele>1687.4</ele>
        <time>2022-10-16T05:41:33Z</time>
      </trkpt>
      <trkpt lat="44.23904" lon="6.64553">
        <ele>1686.1</ele>
        <time>2022-10-16T05:41:45Z</time>
      </trkpt>
      <trkpt lat="44.23897" lon="6.64562">
        <ele>1684.5</ele>
        <time>2022-10-16T05:41:58Z</time>
      </trkpt>
      <trkpt lat="44.23891" lon="6.64571">
        <ele>1682.3</ele>
        <time>2022-10-16T05:42:13Z</time>
      </trkpt>
      <trkpt lat="44.23883" lon="6.64578">
        <ele>1680.9</ele>
        <time>2022-10-16T05:42:24Z</time>
      </trkpt>
      <trkpt lat="44.23875" lon="6.64585">
        <ele>1680</ele>
        <time>2022-10-16T05:42:37Z</time>
      </trkpt>
      <trkpt lat="44.23867" lon="6.64591">
        <ele>1679.7</ele>
        <time>2022-10-16T05:44:26Z</time>
      </trkpt>
      <trkpt lat="44.2386" lon="6.64598">
        <ele>1679.9</ele>
        <time>2022-10-16T05:44:48Z</time>
      </trkpt>
      <trkpt lat="44.23852" lon="6.64606">
        <ele>1680</ele>
        <time>2022-10-16T05:44:56Z</time>
      </trkpt>
      <trkpt lat="44.23846" lon="6.64617">
        <ele>1680.6</ele>
        <time>2022-10-16T05:45:04Z</time>
      </trkpt>
      <trkpt lat="44.2384" lon="6.64626">
        <ele>1680.9</ele>
        <time>2022-10-16T05:45:13Z</time>
      </trkpt>
      <trkpt lat="44.23834" lon="6.64637">
        <ele>1681.1</ele>
        <time>2022-10-16T05:45:22Z</time>
      </trkpt>
      <trkpt lat="44.23827" lon="6.64647">
        <ele>1681.7</ele>
        <time>2022-10-16T05:45:31Z</time>
      </trkpt>
      <trkpt lat="44.23821" lon="6.64658">
        <ele>1682.1</ele>
        <time>2022-10-16T05:45:41Z</time>
      </trkpt>
      <trkpt lat="44.23813" lon="6.64663">
        <ele>1682.1</ele>
        <time>2022-10-16T05:45:52Z</time>
      </trkpt>
      <trkpt lat="44.23804" lon="6.64664">
        <ele>1682.2</ele>
        <time>2022-10-16T05:46:01Z</time>
      </trkpt>
      <trkpt lat="44.23794" lon="6.64666">
        <ele>1682.7</ele>
        <time>2022-10-16T05:46:12Z</time>
      </trkpt>
      <trkpt lat="44.23784" lon="6.64669">
        <ele>1683</ele>
        <time>2022-10-16T05:46:22Z</time>
      </trkpt>
      <trkpt lat="44.23776" lon="6.64674">
        <ele>1683.3</ele>
        <time>2022-10-16T05:46:32Z</time>
      </trkpt>
      <trkpt lat="44.23768" lon="6.64682">
        <ele>1683.4</ele>
        <time>2022-10-16T05:46:41Z</time>
      </trkpt>
      <trkpt lat="44.23761" lon="6.64689">
        <ele>1684.5</ele>
        <time>2022-10-16T05:46:50Z</time>
      </trkpt>
      <trkpt lat="44.23752" lon="6.64693">
        <ele>1684.1</ele>
        <time>2022-10-16T05:47:02Z</time>
      </trkpt>
      <trkpt lat="44.23743" lon="6.64699">
        <ele>1683.5</ele>
        <time>2022-10-16T05:47:13Z</time>
      </trkpt>
      <trkpt lat="44.23734" lon="6.64704">
        <ele>1682.5</ele>
        <time>2022-10-16T05:47:30Z</time>
      </trkpt>
      <trkpt lat="44.23725" lon="6.64705">
        <ele>1680.6</ele>
        <time>2022-10-16T05:47:42Z</time>
      </trkpt>
      <trkpt lat="44.23716" lon="6.64704">
        <ele>1678.5</ele>
        <time>2022-10-16T05:48:01Z</time>
      </trkpt>
      <trkpt lat="44.23709" lon="6.64713">
        <ele>1678.4</ele>
        <time>2022-10-16T05:48:20Z</time>
      </trkpt>
      <trkpt lat="44.237" lon="6.64719">
        <ele>1677.1</ele>
        <time>2022-10-16T05:48:29Z</time>
      </trkpt>
      <trkpt lat="44.23693" lon="6.64727">
        <ele>1676.1</ele>
        <time>2022-10-16T05:48:37Z</time>
      </trkpt>
      <trkpt lat="44.23686" lon="6.64735">
        <ele>1675.4</ele>
        <time>2022-10-16T05:48:47Z</time>
      </trkpt>
      <trkpt lat="44.2368" lon="6.64745">
        <ele>1675.3</ele>
        <time>2022-10-16T05:49:04Z</time>
      </trkpt>
      <trkpt lat="44.23672" lon="6.64751">
        <ele>1673.5</ele>
        <time>2022-10-16T05:49:15Z</time>
      </trkpt>
      <trkpt lat="44.23665" lon="6.64761">
        <ele>1671.7</ele>
        <time>2022-10-16T05:49:25Z</time>
      </trkpt>
      <trkpt lat="44.23661" lon="6.64773">
        <ele>1669.8</ele>
        <time>2022-10-16T05:49:42Z</time>
      </trkpt>
      <trkpt lat="44.23655" lon="6.64784">
        <ele>1668.6</ele>
        <time>2022-10-16T05:49:52Z</time>
      </trkpt>
      <trkpt lat="44.23647" lon="6.64792">
        <ele>1669</ele>
        <time>2022-10-16T05:50:01Z</time>
      </trkpt>
      <trkpt lat="44.23639" lon="6.64797">
        <ele>1669</ele>
        <time>2022-10-16T05:50:10Z</time>
      </trkpt>
      <trkpt lat="44.23631" lon="6.64805">
        <ele>1669</ele>
        <time>2022-10-16T05:50:21Z</time>
      </trkpt>
      <trkpt lat="44.23626" lon="6.64816">
        <ele>1669</ele>
        <time>2022-10-16T05:50:29Z</time>
      </trkpt>
      <trkpt lat="44.23619" lon="6.64827">
        <ele>1669.1</ele>
        <time>2022-10-16T05:50:37Z</time>
      </trkpt>
      <trkpt lat="44.23612" lon="6.64837">
        <ele>1670</ele>
        <time>2022-10-16T05:50:45Z</time>
      </trkpt>
      <trkpt lat="44.23604" lon="6.64844">
        <ele>1669.4</ele>
        <time>2022-10-16T05:50:57Z</time>
      </trkpt>
      <trkpt lat="44.236" lon="6.64832">
        <ele>1661.5</ele>
        <time>2022-10-16T05:51:31Z</time>
      </trkpt>
      <trkpt lat="44.2359" lon="6.64836">
        <ele>1657.5</ele>
        <time>2022-10-16T05:51:54Z</time>
      </trkpt>
      <trkpt lat="44.23587" lon="6.64824">
        <ele>1653.5</ele>
        <time>2022-10-16T05:52:23Z</time>
      </trkpt>
      <trkpt lat="44.23579" lon="6.64818">
        <ele>1653.4</ele>
        <time>2022-10-16T05:52:49Z</time>
      </trkpt>
      <trkpt lat="44.2357" lon="6.64822">
        <ele>1654.9</ele>
        <time>2022-10-16T05:53:44Z</time>
      </trkpt>
      <trkpt lat="44.23564" lon="6.64812">
        <ele>1658.2</ele>
        <time>2022-10-16T05:54:15Z</time>
      </trkpt>
      <trkpt lat="44.23554" lon="6.64813">
        <ele>1659.8</ele>
        <time>2022-10-16T05:54:33Z</time>
      </trkpt>
      <trkpt lat="44.23545" lon="6.64815">
        <ele>1661.5</ele>
        <time>2022-10-16T05:54:48Z</time>
      </trkpt>
      <trkpt lat="44.23536" lon="6.64819">
        <ele>1663.3</ele>
        <time>2022-10-16T05:55:01Z</time>
      </trkpt>
      <trkpt lat="44.23528" lon="6.64825">
        <ele>1664.3</ele>
        <time>2022-10-16T05:55:13Z</time>
      </trkpt>
      <trkpt lat="44.23519" lon="6.64825">
        <ele>1667.4</ele>
        <time>2022-10-16T05:55:35Z</time>
      </trkpt>
      <trkpt lat="44.2352" lon="6.64837">
        <ele>1676.4</ele>
        <time>2022-10-16T05:58:52Z</time>
      </trkpt>
      <trkpt lat="44.23522" lon="6.64823">
        <ele>1677.2</ele>
        <time>2022-10-16T06:00:09Z</time>
      </trkpt>
      <trkpt lat="44.23526" lon="6.64812">
        <ele>1679.8</ele>
        <time>2022-10-16T06:00:24Z</time>
      </trkpt>
      <trkpt lat="44.23529" lon="6.648">
        <ele>1682</ele>
        <time>2022-10-16T06:00:37Z</time>
      </trkpt>
      <trkpt lat="44.23532" lon="6.64788">
        <ele>1684.8</ele>
        <time>2022-10-16T06:00:51Z</time>
      </trkpt>
      <trkpt lat="44.23523" lon="6.64784">
        <ele>1688.8</ele>
        <time>2022-10-16T06:01:20Z</time>
      </trkpt>
      <trkpt lat="44.23523" lon="6.64771">
        <ele>1695.4</ele>
        <time>2022-10-16T06:02:04Z</time>
      </trkpt>
      <trkpt lat="44.23526" lon="6.64759">
        <ele>1698.1</ele>
        <time>2022-10-16T06:02:21Z</time>
      </trkpt>
      <trkpt lat="44.23529" lon="6.64746">
        <ele>1699.8</ele>
        <time>2022-10-16T06:02:35Z</time>
      </trkpt>
      <trkpt lat="44.23523" lon="6.64737">
        <ele>1705.1</ele>
        <time>2022-10-16T06:03:12Z</time>
      </trkpt>
      <trkpt lat="44.23526" lon="6.64725">
        <ele>1707.3</ele>
        <time>2022-10-16T06:03:29Z</time>
      </trkpt>
      <trkpt lat="44.23517" lon="6.64729">
        <ele>1710.4</ele>
        <time>2022-10-16T06:03:55Z</time>
      </trkpt>
      <trkpt lat="44.23508" lon="6.64734">
        <ele>1711.3</ele>
        <time>2022-10-16T06:04:05Z</time>
      </trkpt>
      <trkpt lat="44.23499" lon="6.64737">
        <ele>1713.8</ele>
        <time>2022-10-16T06:04:22Z</time>
      </trkpt>
      <trkpt lat="44.23493" lon="6.64746">
        <ele>1718.1</ele>
        <time>2022-10-16T06:04:51Z</time>
      </trkpt>
      <trkpt lat="44.23486" lon="6.64756">
        <ele>1720.1</ele>
        <time>2022-10-16T06:05:05Z</time>
      </trkpt>
      <trkpt lat="44.23483" lon="6.64768">
        <ele>1721.2</ele>
        <time>2022-10-16T06:05:18Z</time>
      </trkpt>
      <trkpt lat="44.23488" lon="6.64758">
        <ele>1726.3</ele>
        <time>2022-10-16T06:06:01Z</time>
      </trkpt>
      <trkpt lat="44.23481" lon="6.64749">
        <ele>1729.6</ele>
        <time>2022-10-16T06:06:23Z</time>
      </trkpt>
      <trkpt lat="44.23472" lon="6.64748">
        <ele>1731.3</ele>
        <time>2022-10-16T06:06:38Z</time>
      </trkpt>
      <trkpt lat="44.23469" lon="6.64735">
        <ele>1733.9</ele>
        <time>2022-10-16T06:06:56Z</time>
      </trkpt>
      <trkpt lat="44.23461" lon="6.64728">
        <ele>1734.4</ele>
        <time>2022-10-16T06:07:05Z</time>
      </trkpt>
      <trkpt lat="44.23456" lon="6.64718">
        <ele>1735.1</ele>
        <time>2022-10-16T06:07:16Z</time>
      </trkpt>
      <trkpt lat="44.23452" lon="6.64705">
        <ele>1737.4</ele>
        <time>2022-10-16T06:07:33Z</time>
      </trkpt>
      <trkpt lat="44.23443" lon="6.64703">
        <ele>1738.8</ele>
        <time>2022-10-16T06:08:17Z</time>
      </trkpt>
      <trkpt lat="44.23435" lon="6.64696">
        <ele>1739.1</ele>
        <time>2022-10-16T06:08:59Z</time>
      </trkpt>
      <trkpt lat="44.23433" lon="6.64684">
        <ele>1740.1</ele>
        <time>2022-10-16T06:09:11Z</time>
      </trkpt>
      <trkpt lat="44.23428" lon="6.64673">
        <ele>1740</ele>
        <time>2022-10-16T06:09:22Z</time>
      </trkpt>
      <trkpt lat="44.23423" lon="6.6466">
        <ele>1740.1</ele>
        <time>2022-10-16T06:09:34Z</time>
      </trkpt>
      <trkpt lat="44.23416" lon="6.6465">
        <ele>1740.8</ele>
        <time>2022-10-16T06:09:42Z</time>
      </trkpt>
      <trkpt lat="44.23409" lon="6.64643">
        <ele>1741.1</ele>
        <time>2022-10-16T06:09:48Z</time>
      </trkpt>
      <trkpt lat="44.23401" lon="6.64636">
        <ele>1741.5</ele>
        <time>2022-10-16T06:09:55Z</time>
      </trkpt>
      <trkpt lat="44.23394" lon="6.64627">
        <ele>1741.8</ele>
        <time>2022-10-16T06:10:04Z</time>
      </trkpt>
      <trkpt lat="44.23388" lon="6.64618">
        <ele>1742</ele>
        <time>2022-10-16T06:10:13Z</time>
      </trkpt>
      <trkpt lat="44.23386" lon="6.64605">
        <ele>1744.1</ele>
        <time>2022-10-16T06:10:27Z</time>
      </trkpt>
      <trkpt lat="44.23378" lon="6.64595">
        <ele>1746</ele>
        <time>2022-10-16T06:10:39Z</time>
      </trkpt>
      <trkpt lat="44.23371" lon="6.64587">
        <ele>1747.2</ele>
        <time>2022-10-16T06:10:48Z</time>
      </trkpt>
      <trkpt lat="44.23363" lon="6.64579">
        <ele>1748.3</ele>
        <time>2022-10-16T06:10:57Z</time>
      </trkpt>
      <trkpt lat="44.23355" lon="6.64574">
        <ele>1749.1</ele>
        <time>2022-10-16T06:11:14Z</time>
      </trkpt>
      <trkpt lat="44.23347" lon="6.64567">
        <ele>1750.9</ele>
        <time>2022-10-16T06:11:45Z</time>
      </trkpt>
      <trkpt lat="44.2334" lon="6.64558">
        <ele>1749.1</ele>
        <time>2022-10-16T06:11:59Z</time>
      </trkpt>
      <trkpt lat="44.23334" lon="6.64549">
        <ele>1747.4</ele>
        <time>2022-10-16T06:12:08Z</time>
      </trkpt>
      <trkpt lat="44.23326" lon="6.64541">
        <ele>1747.5</ele>
        <time>2022-10-16T06:12:17Z</time>
      </trkpt>
      <trkpt lat="44.23318" lon="6.64533">
        <ele>1747.7</ele>
        <time>2022-10-16T06:12:26Z</time>
      </trkpt>
      <trkpt lat="44.2331" lon="6.64526">
        <ele>1748.4</ele>
        <time>2022-10-16T06:12:38Z</time>
      </trkpt>
      <trkpt lat="44.23302" lon="6.64523">
        <ele>1748.9</ele>
        <time>2022-10-16T06:12:44Z</time>
      </trkpt>
      <trkpt lat="44.23293" lon="6.64517">
        <ele>1748.6</ele>
        <time>2022-10-16T06:12:55Z</time>
      </trkpt>
      <trkpt lat="44.23284" lon="6.6451">
        <ele>1747.8</ele>
        <time>2022-10-16T06:13:08Z</time>
      </trkpt>
      <trkpt lat="44.23276" lon="6.64505">
        <ele>1748.4</ele>
        <time>2022-10-16T06:13:18Z</time>
      </trkpt>
      <trkpt lat="44.2327" lon="6.64494">
        <ele>1747.5</ele>
        <time>2022-10-16T06:13:31Z</time>
      </trkpt>
      <trkpt lat="44.23267" lon="6.64482">
        <ele>1747.8</ele>
        <time>2022-10-16T06:13:45Z</time>
      </trkpt>
      <trkpt lat="44.23261" lon="6.64472">
        <ele>1748.1</ele>
        <time>2022-10-16T06:13:57Z</time>
      </trkpt>
      <trkpt lat="44.23258" lon="6.64459">
        <ele>1748.3</ele>
        <time>2022-10-16T06:14:08Z</time>
      </trkpt>
      <trkpt lat="44.2325" lon="6.6445">
        <ele>1748.7</ele>
        <time>2022-10-16T06:14:15Z</time>
      </trkpt>
      <trkpt lat="44.23243" lon="6.64442">
        <ele>1748.7</ele>
        <time>2022-10-16T06:14:22Z</time>
      </trkpt>
      <trkpt lat="44.2324" lon="6.64431">
        <ele>1748.6</ele>
        <time>2022-10-16T06:14:31Z</time>
      </trkpt>
      <trkpt lat="44.23233" lon="6.64422">
        <ele>1749.4</ele>
        <time>2022-10-16T06:14:42Z</time>
      </trkpt>
      <trkpt lat="44.23227" lon="6.64412">
        <ele>1748.3</ele>
        <time>2022-10-16T06:14:52Z</time>
      </trkpt>
      <trkpt lat="44.23227" lon="6.64399">
        <ele>1744.7</ele>
        <time>2022-10-16T06:15:14Z</time>
      </trkpt>
      <trkpt lat="44.23223" lon="6.64387">
        <ele>1743.4</ele>
        <time>2022-10-16T06:15:25Z</time>
      </trkpt>
      <trkpt lat="44.23215" lon="6.64381">
        <ele>1742.6</ele>
        <time>2022-10-16T06:15:33Z</time>
      </trkpt>
      <trkpt lat="44.23213" lon="6.64368">
        <ele>1740.6</ele>
        <time>2022-10-16T06:15:50Z</time>
      </trkpt>
      <trkpt lat="44.23208" lon="6.64357">
        <ele>1738.5</ele>
        <time>2022-10-16T06:16:01Z</time>
      </trkpt>
      <trkpt lat="44.23205" lon="6.64345">
        <ele>1735.7</ele>
        <time>2022-10-16T06:16:23Z</time>
      </trkpt>
      <trkpt lat="44.23208" lon="6.64333">
        <ele>1733.2</ele>
        <time>2022-10-16T06:16:37Z</time>
      </trkpt>
      <trkpt lat="44.23208" lon="6.64319">
        <ele>1731.6</ele>
        <time>2022-10-16T06:16:48Z</time>
      </trkpt>
      <trkpt lat="44.23206" lon="6.64306">
        <ele>1730.4</ele>
        <time>2022-10-16T06:16:57Z</time>
      </trkpt>
      <trkpt lat="44.23205" lon="6.64293">
        <ele>1729.3</ele>
        <time>2022-10-16T06:17:07Z</time>
      </trkpt>
      <trkpt lat="44.232" lon="6.64283">
        <ele>1728.7</ele>
        <time>2022-10-16T06:17:17Z</time>
      </trkpt>
      <trkpt lat="44.23192" lon="6.64274">
        <ele>1727.9</ele>
        <time>2022-10-16T06:17:25Z</time>
      </trkpt>
      <trkpt lat="44.23186" lon="6.64264">
        <ele>1726.4</ele>
        <time>2022-10-16T06:17:35Z</time>
      </trkpt>
      <trkpt lat="44.2318" lon="6.64254">
        <ele>1724</ele>
        <time>2022-10-16T06:17:49Z</time>
      </trkpt>
      <trkpt lat="44.23172" lon="6.64245">
        <ele>1722.2</ele>
        <time>2022-10-16T06:17:59Z</time>
      </trkpt>
      <trkpt lat="44.23163" lon="6.6424">
        <ele>1721.1</ele>
        <time>2022-10-16T06:18:07Z</time>
      </trkpt>
      <trkpt lat="44.23155" lon="6.64232">
        <ele>1719.1</ele>
        <time>2022-10-16T06:18:18Z</time>
      </trkpt>
      <trkpt lat="44.23147" lon="6.64228">
        <ele>1717.5</ele>
        <time>2022-10-16T06:18:31Z</time>
      </trkpt>
      <trkpt lat="44.23138" lon="6.64231">
        <ele>1717.5</ele>
        <time>2022-10-16T06:18:58Z</time>
      </trkpt>
      <trkpt lat="44.23133" lon="6.6422">
        <ele>1719</ele>
        <time>2022-10-16T06:19:24Z</time>
      </trkpt>
      <trkpt lat="44.23127" lon="6.64209">
        <ele>1720.7</ele>
        <time>2022-10-16T06:19:37Z</time>
      </trkpt>
      <trkpt lat="44.23118" lon="6.64201">
        <ele>1722.2</ele>
        <time>2022-10-16T06:19:48Z</time>
      </trkpt>
      <trkpt lat="44.2311" lon="6.64195">
        <ele>1722.9</ele>
        <time>2022-10-16T06:19:57Z</time>
      </trkpt>
      <trkpt lat="44.23101" lon="6.64191">
        <ele>1725</ele>
        <time>2022-10-16T06:20:12Z</time>
      </trkpt>
      <trkpt lat="44.23092" lon="6.64187">
        <ele>1727.1</ele>
        <time>2022-10-16T06:20:25Z</time>
      </trkpt>
      <trkpt lat="44.23083" lon="6.64183">
        <ele>1729.5</ele>
        <time>2022-10-16T06:20:41Z</time>
      </trkpt>
      <trkpt lat="44.23074" lon="6.64189">
        <ele>1730.7</ele>
        <time>2022-10-16T06:20:50Z</time>
      </trkpt>
      <trkpt lat="44.23065" lon="6.64195">
        <ele>1731.7</ele>
        <time>2022-10-16T06:21:03Z</time>
      </trkpt>
      <trkpt lat="44.23059" lon="6.64204">
        <ele>1733.1</ele>
        <time>2022-10-16T06:21:14Z</time>
      </trkpt>
      <trkpt lat="44.23051" lon="6.64209">
        <ele>1735.1</ele>
        <time>2022-10-16T06:21:31Z</time>
      </trkpt>
      <trkpt lat="44.23046" lon="6.6422">
        <ele>1737.6</ele>
        <time>2022-10-16T06:21:47Z</time>
      </trkpt>
      <trkpt lat="44.23037" lon="6.64225">
        <ele>1740.9</ele>
        <time>2022-10-16T06:22:09Z</time>
      </trkpt>
      <trkpt lat="44.2303" lon="6.64231">
        <ele>1744</ele>
        <time>2022-10-16T06:22:27Z</time>
      </trkpt>
      <trkpt lat="44.2303" lon="6.64246">
        <ele>1746.1</ele>
        <time>2022-10-16T06:22:40Z</time>
      </trkpt>
      <trkpt lat="44.23036" lon="6.64255">
        <ele>1747.5</ele>
        <time>2022-10-16T06:22:51Z</time>
      </trkpt>
      <trkpt lat="44.23045" lon="6.64257">
        <ele>1747.6</ele>
        <time>2022-10-16T06:23:24Z</time>
      </trkpt>
      <trkpt lat="44.23053" lon="6.64264">
        <ele>1750.8</ele>
        <time>2022-10-16T06:25:16Z</time>
      </trkpt>
      <trkpt lat="44.23057" lon="6.64276">
        <ele>1754.2</ele>
        <time>2022-10-16T06:25:35Z</time>
      </trkpt>
      <trkpt lat="44.23063" lon="6.64286">
        <ele>1756.2</ele>
        <time>2022-10-16T06:25:47Z</time>
      </trkpt>
      <trkpt lat="44.23069" lon="6.64296">
        <ele>1757</ele>
        <time>2022-10-16T06:26:00Z</time>
      </trkpt>
      <trkpt lat="44.23073" lon="6.64307">
        <ele>1757.3</ele>
        <time>2022-10-16T06:26:11Z</time>
      </trkpt>
      <trkpt lat="44.23064" lon="6.64308">
        <ele>1760.2</ele>
        <time>2022-10-16T06:26:36Z</time>
      </trkpt>
      <trkpt lat="44.23055" lon="6.64306">
        <ele>1763</ele>
        <time>2022-10-16T06:26:52Z</time>
      </trkpt>
      <trkpt lat="44.23045" lon="6.64303">
        <ele>1766.1</ele>
        <time>2022-10-16T06:27:11Z</time>
      </trkpt>
      <trkpt lat="44.23036" lon="6.64305">
        <ele>1770</ele>
        <time>2022-10-16T06:27:31Z</time>
      </trkpt>
      <trkpt lat="44.23028" lon="6.64313">
        <ele>1773</ele>
        <time>2022-10-16T06:27:55Z</time>
      </trkpt>
      <trkpt lat="44.23022" lon="6.64324">
        <ele>1774.7</ele>
        <time>2022-10-16T06:28:18Z</time>
      </trkpt>
      <trkpt lat="44.23021" lon="6.64337">
        <ele>1774.9</ele>
        <time>2022-10-16T06:29:34Z</time>
      </trkpt>
      <trkpt lat="44.23024" lon="6.64349">
        <ele>1775.2</ele>
        <time>2022-10-16T06:29:56Z</time>
      </trkpt>
      <trkpt lat="44.23029" lon="6.6436">
        <ele>1775.2</ele>
        <time>2022-10-16T06:30:08Z</time>
      </trkpt>
      <trkpt lat="44.23033" lon="6.64371">
        <ele>1777.8</ele>
        <time>2022-10-16T06:30:24Z</time>
      </trkpt>
      <trkpt lat="44.23037" lon="6.64383">
        <ele>1780.2</ele>
        <time>2022-10-16T06:30:38Z</time>
      </trkpt>
      <trkpt lat="44.23042" lon="6.64394">
        <ele>1782.3</ele>
        <time>2022-10-16T06:30:51Z</time>
      </trkpt>
      <trkpt lat="44.23047" lon="6.64405">
        <ele>1784.5</ele>
        <time>2022-10-16T06:31:08Z</time>
      </trkpt>
      <trkpt lat="44.23048" lon="6.64418">
        <ele>1787.6</ele>
        <time>2022-10-16T06:31:27Z</time>
      </trkpt>
      <trkpt lat="44.23052" lon="6.6443">
        <ele>1790.2</ele>
        <time>2022-10-16T06:31:42Z</time>
      </trkpt>
      <trkpt lat="44.23053" lon="6.64442">
        <ele>1792.3</ele>
        <time>2022-10-16T06:31:57Z</time>
      </trkpt>
      <trkpt lat="44.23058" lon="6.64454">
        <ele>1794.6</ele>
        <time>2022-10-16T06:32:11Z</time>
      </trkpt>
      <trkpt lat="44.23062" lon="6.64466">
        <ele>1797.2</ele>
        <time>2022-10-16T06:32:28Z</time>
      </trkpt>
      <trkpt lat="44.23065" lon="6.64477">
        <ele>1799.7</ele>
        <time>2022-10-16T06:32:46Z</time>
      </trkpt>
      <trkpt lat="44.23058" lon="6.64484">
        <ele>1802</ele>
        <time>2022-10-16T06:33:10Z</time>
      </trkpt>
      <trkpt lat="44.23052" lon="6.64495">
        <ele>1802.9</ele>
        <time>2022-10-16T06:33:21Z</time>
      </trkpt>
      <trkpt lat="44.23054" lon="6.64508">
        <ele>1803.3</ele>
        <time>2022-10-16T06:33:31Z</time>
      </trkpt>
      <trkpt lat="44.23061" lon="6.64517">
        <ele>1802.3</ele>
        <time>2022-10-16T06:33:40Z</time>
      </trkpt>
      <trkpt lat="44.23067" lon="6.64527">
        <ele>1802.5</ele>
        <time>2022-10-16T06:33:52Z</time>
      </trkpt>
      <trkpt lat="44.23067" lon="6.6454">
        <ele>1804.7</ele>
        <time>2022-10-16T06:34:09Z</time>
      </trkpt>
      <trkpt lat="44.2307" lon="6.64552">
        <ele>1806.4</ele>
        <time>2022-10-16T06:34:21Z</time>
      </trkpt>
      <trkpt lat="44.2307" lon="6.64565">
        <ele>1808.6</ele>
        <time>2022-10-16T06:34:36Z</time>
      </trkpt>
      <trkpt lat="44.23068" lon="6.64577">
        <ele>1811.8</ele>
        <time>2022-10-16T06:34:55Z</time>
      </trkpt>
      <trkpt lat="44.23061" lon="6.64585">
        <ele>1814.1</ele>
        <time>2022-10-16T06:35:11Z</time>
      </trkpt>
      <trkpt lat="44.23053" lon="6.64592">
        <ele>1815.8</ele>
        <time>2022-10-16T06:35:26Z</time>
      </trkpt>
      <trkpt lat="44.23045" lon="6.64599">
        <ele>1818.1</ele>
        <time>2022-10-16T06:35:42Z</time>
      </trkpt>
      <trkpt lat="44.23039" lon="6.64608">
        <ele>1820.3</ele>
        <time>2022-10-16T06:35:56Z</time>
      </trkpt>
      <trkpt lat="44.23033" lon="6.64618">
        <ele>1822.2</ele>
        <time>2022-10-16T06:36:09Z</time>
      </trkpt>
      <trkpt lat="44.23027" lon="6.64628">
        <ele>1824.7</ele>
        <time>2022-10-16T06:36:23Z</time>
      </trkpt>
      <trkpt lat="44.2302" lon="6.64637">
        <ele>1827.7</ele>
        <time>2022-10-16T06:36:54Z</time>
      </trkpt>
      <trkpt lat="44.23016" lon="6.6465">
        <ele>1829.5</ele>
        <time>2022-10-16T06:37:05Z</time>
      </trkpt>
      <trkpt lat="44.23013" lon="6.64662">
        <ele>1831.1</ele>
        <time>2022-10-16T06:37:15Z</time>
      </trkpt>
      <trkpt lat="44.23015" lon="6.64674">
        <ele>1832.4</ele>
        <time>2022-10-16T06:37:25Z</time>
      </trkpt>
      <trkpt lat="44.2302" lon="6.64686">
        <ele>1833.9</ele>
        <time>2022-10-16T06:37:35Z</time>
      </trkpt>
      <trkpt lat="44.23017" lon="6.64698">
        <ele>1835.7</ele>
        <time>2022-10-16T06:37:48Z</time>
      </trkpt>
      <trkpt lat="44.23013" lon="6.6471">
        <ele>1838</ele>
        <time>2022-10-16T06:38:04Z</time>
      </trkpt>
      <trkpt lat="44.23009" lon="6.64722">
        <ele>1839.4</ele>
        <time>2022-10-16T06:38:16Z</time>
      </trkpt>
      <trkpt lat="44.23008" lon="6.64734">
        <ele>1840.2</ele>
        <time>2022-10-16T06:38:26Z</time>
      </trkpt>
      <trkpt lat="44.23006" lon="6.64747">
        <ele>1842.2</ele>
        <time>2022-10-16T06:38:40Z</time>
      </trkpt>
      <trkpt lat="44.23002" lon="6.64758">
        <ele>1844.4</ele>
        <time>2022-10-16T06:38:58Z</time>
      </trkpt>
      <trkpt lat="44.22996" lon="6.64768">
        <ele>1845.8</ele>
        <time>2022-10-16T06:39:13Z</time>
      </trkpt>
      <trkpt lat="44.22988" lon="6.64776">
        <ele>1847.9</ele>
        <time>2022-10-16T06:39:27Z</time>
      </trkpt>
      <trkpt lat="44.22982" lon="6.64786">
        <ele>1849</ele>
        <time>2022-10-16T06:39:40Z</time>
      </trkpt>
      <trkpt lat="44.2298" lon="6.64799">
        <ele>1850.6</ele>
        <time>2022-10-16T06:39:52Z</time>
      </trkpt>
      <trkpt lat="44.22976" lon="6.64811">
        <ele>1852.3</ele>
        <time>2022-10-16T06:40:04Z</time>
      </trkpt>
      <trkpt lat="44.22976" lon="6.64824">
        <ele>1853</ele>
        <time>2022-10-16T06:40:11Z</time>
      </trkpt>
      <trkpt lat="44.22974" lon="6.64837">
        <ele>1853.7</ele>
        <time>2022-10-16T06:40:22Z</time>
      </trkpt>
      <trkpt lat="44.22971" lon="6.6485">
        <ele>1854.7</ele>
        <time>2022-10-16T06:40:33Z</time>
      </trkpt>
      <trkpt lat="44.22967" lon="6.6486">
        <ele>1856.9</ele>
        <time>2022-10-16T06:40:46Z</time>
      </trkpt>
      <trkpt lat="44.2296" lon="6.64871">
        <ele>1858.1</ele>
        <time>2022-10-16T06:40:59Z</time>
      </trkpt>
      <trkpt lat="44.22957" lon="6.64882">
        <ele>1859.5</ele>
        <time>2022-10-16T06:41:15Z</time>
      </trkpt>
      <trkpt lat="44.2295" lon="6.64892">
        <ele>1860.6</ele>
        <time>2022-10-16T06:41:30Z</time>
      </trkpt>
      <trkpt lat="44.22944" lon="6.64901">
        <ele>1861.8</ele>
        <time>2022-10-16T06:41:42Z</time>
      </trkpt>
      <trkpt lat="44.22943" lon="6.64913">
        <ele>1862.6</ele>
        <time>2022-10-16T06:42:01Z</time>
      </trkpt>
      <trkpt lat="44.22951" lon="6.64918">
        <ele>1862</ele>
        <time>2022-10-16T06:45:36Z</time>
      </trkpt>
      <trkpt lat="44.22943" lon="6.64926">
        <ele>1862.9</ele>
        <time>2022-10-16T06:48:33Z</time>
      </trkpt>
      <trkpt lat="44.22936" lon="6.64934">
        <ele>1865.3</ele>
        <time>2022-10-16T06:48:52Z</time>
      </trkpt>
      <trkpt lat="44.22932" lon="6.64946">
        <ele>1867.6</ele>
        <time>2022-10-16T06:49:08Z</time>
      </trkpt>
      <trkpt lat="44.22929" lon="6.64958">
        <ele>1869.2</ele>
        <time>2022-10-16T06:49:22Z</time>
      </trkpt>
      <trkpt lat="44.22925" lon="6.64969">
        <ele>1871</ele>
        <time>2022-10-16T06:49:39Z</time>
      </trkpt>
      <trkpt lat="44.22916" lon="6.64976">
        <ele>1873</ele>
        <time>2022-10-16T06:49:54Z</time>
      </trkpt>
      <trkpt lat="44.22906" lon="6.64982">
        <ele>1875.6</ele>
        <time>2022-10-16T06:50:11Z</time>
      </trkpt>
      <trkpt lat="44.22899" lon="6.6499">
        <ele>1877.3</ele>
        <time>2022-10-16T06:50:23Z</time>
      </trkpt>
      <trkpt lat="44.22891" lon="6.64998">
        <ele>1879</ele>
        <time>2022-10-16T06:50:36Z</time>
      </trkpt>
      <trkpt lat="44.22884" lon="6.65008">
        <ele>1879.4</ele>
        <time>2022-10-16T06:50:49Z</time>
      </trkpt>
      <trkpt lat="44.2288" lon="6.65019">
        <ele>1880.8</ele>
        <time>2022-10-16T06:51:01Z</time>
      </trkpt>
      <trkpt lat="44.22874" lon="6.65029">
        <ele>1882.6</ele>
        <time>2022-10-16T06:51:15Z</time>
      </trkpt>
      <trkpt lat="44.22869" lon="6.65039">
        <ele>1885</ele>
        <time>2022-10-16T06:51:31Z</time>
      </trkpt>
      <trkpt lat="44.22865" lon="6.65051">
        <ele>1886.5</ele>
        <time>2022-10-16T06:51:44Z</time>
      </trkpt>
      <trkpt lat="44.22858" lon="6.6506">
        <ele>1888.3</ele>
        <time>2022-10-16T06:51:58Z</time>
      </trkpt>
      <trkpt lat="44.22852" lon="6.65069">
        <ele>1890.5</ele>
        <time>2022-10-16T06:52:11Z</time>
      </trkpt>
      <trkpt lat="44.22847" lon="6.6508">
        <ele>1893.1</ele>
        <time>2022-10-16T06:52:28Z</time>
      </trkpt>
      <trkpt lat="44.22839" lon="6.65087">
        <ele>1895.6</ele>
        <time>2022-10-16T06:52:42Z</time>
      </trkpt>
      <trkpt lat="44.22832" lon="6.65096">
        <ele>1899.4</ele>
        <time>2022-10-16T06:53:02Z</time>
      </trkpt>
      <trkpt lat="44.22825" lon="6.65104">
        <ele>1901.5</ele>
        <time>2022-10-16T06:53:15Z</time>
      </trkpt>
      <trkpt lat="44.22817" lon="6.6511">
        <ele>1905.4</ele>
        <time>2022-10-16T06:53:39Z</time>
      </trkpt>
      <trkpt lat="44.22809" lon="6.65117">
        <ele>1908</ele>
        <time>2022-10-16T06:53:56Z</time>
      </trkpt>
      <trkpt lat="44.22803" lon="6.65127">
        <ele>1907.9</ele>
        <time>2022-10-16T06:54:13Z</time>
      </trkpt>
      <trkpt lat="44.22795" lon="6.65134">
        <ele>1912.5</ele>
        <time>2022-10-16T06:54:57Z</time>
      </trkpt>
      <trkpt lat="44.22786" lon="6.6513">
        <ele>1913.4</ele>
        <time>2022-10-16T06:55:12Z</time>
      </trkpt>
      <trkpt lat="44.22779" lon="6.65139">
        <ele>1917.2</ele>
        <time>2022-10-16T06:55:34Z</time>
      </trkpt>
      <trkpt lat="44.2277" lon="6.6514">
        <ele>1922.6</ele>
        <time>2022-10-16T06:56:11Z</time>
      </trkpt>
      <trkpt lat="44.22762" lon="6.65146">
        <ele>1924.4</ele>
        <time>2022-10-16T06:56:24Z</time>
      </trkpt>
      <trkpt lat="44.22753" lon="6.65149">
        <ele>1929.1</ele>
        <time>2022-10-16T06:56:48Z</time>
      </trkpt>
      <trkpt lat="44.22743" lon="6.65151">
        <ele>1932.9</ele>
        <time>2022-10-16T06:57:13Z</time>
      </trkpt>
      <trkpt lat="44.22734" lon="6.65155">
        <ele>1937.4</ele>
        <time>2022-10-16T06:57:39Z</time>
      </trkpt>
      <trkpt lat="44.22725" lon="6.65153">
        <ele>1939.6</ele>
        <time>2022-10-16T06:57:53Z</time>
      </trkpt>
      <trkpt lat="44.22716" lon="6.65157">
        <ele>1941.1</ele>
        <time>2022-10-16T06:58:07Z</time>
      </trkpt>
      <trkpt lat="44.22708" lon="6.65162">
        <ele>1943.2</ele>
        <time>2022-10-16T06:58:22Z</time>
      </trkpt>
      <trkpt lat="44.22698" lon="6.65161">
        <ele>1946.1</ele>
        <time>2022-10-16T06:58:42Z</time>
      </trkpt>
      <trkpt lat="44.2269" lon="6.65166">
        <ele>1947.6</ele>
        <time>2022-10-16T06:58:54Z</time>
      </trkpt>
      <trkpt lat="44.22681" lon="6.65166">
        <ele>1950.8</ele>
        <time>2022-10-16T06:59:12Z</time>
      </trkpt>
      <trkpt lat="44.22672" lon="6.65166">
        <ele>1953.5</ele>
        <time>2022-10-16T06:59:32Z</time>
      </trkpt>
      <trkpt lat="44.22663" lon="6.65163">
        <ele>1956.5</ele>
        <time>2022-10-16T06:59:51Z</time>
      </trkpt>
      <trkpt lat="44.22654" lon="6.65165">
        <ele>1958.1</ele>
        <time>2022-10-16T07:00:04Z</time>
      </trkpt>
      <trkpt lat="44.22646" lon="6.65159">
        <ele>1958.1</ele>
        <time>2022-10-16T07:00:18Z</time>
      </trkpt>
      <trkpt lat="44.22638" lon="6.65152">
        <ele>1959.1</ele>
        <time>2022-10-16T07:00:31Z</time>
      </trkpt>
      <trkpt lat="44.22634" lon="6.65141">
        <ele>1959</ele>
        <time>2022-10-16T07:01:10Z</time>
      </trkpt>
      <trkpt lat="44.22625" lon="6.65139">
        <ele>1958.8</ele>
        <time>2022-10-16T07:01:22Z</time>
      </trkpt>
      <trkpt lat="44.22622" lon="6.65151">
        <ele>1958.8</ele>
        <time>2022-10-16T07:02:37Z</time>
      </trkpt>
      <trkpt lat="44.22613" lon="6.65146">
        <ele>1958.8</ele>
        <time>2022-10-16T07:03:34Z</time>
      </trkpt>
      <trkpt lat="44.22605" lon="6.65138">
        <ele>1959.5</ele>
        <time>2022-10-16T07:03:46Z</time>
      </trkpt>
      <trkpt lat="44.22608" lon="6.65126">
        <ele>1961.3</ele>
        <time>2022-10-16T07:04:04Z</time>
      </trkpt>
      <trkpt lat="44.22614" lon="6.65116">
        <ele>1964.2</ele>
        <time>2022-10-16T07:04:19Z</time>
      </trkpt>
      <trkpt lat="44.2261" lon="6.65105">
        <ele>1965.9</ele>
        <time>2022-10-16T07:04:30Z</time>
      </trkpt>
      <trkpt lat="44.22601" lon="6.651">
        <ele>1967.3</ele>
        <time>2022-10-16T07:04:39Z</time>
      </trkpt>
      <trkpt lat="44.22593" lon="6.65093">
        <ele>1970</ele>
        <time>2022-10-16T07:04:53Z</time>
      </trkpt>
      <trkpt lat="44.22584" lon="6.6509">
        <ele>1973.2</ele>
        <time>2022-10-16T07:05:14Z</time>
      </trkpt>
      <trkpt lat="44.22577" lon="6.65098">
        <ele>1975.1</ele>
        <time>2022-10-16T07:05:27Z</time>
      </trkpt>
      <trkpt lat="44.22568" lon="6.65099">
        <ele>1976.7</ele>
        <time>2022-10-16T07:05:38Z</time>
      </trkpt>
      <trkpt lat="44.22559" lon="6.65105">
        <ele>1979.5</ele>
        <time>2022-10-16T07:05:57Z</time>
      </trkpt>
      <trkpt lat="44.22551" lon="6.6511">
        <ele>1982.2</ele>
        <time>2022-10-16T07:06:14Z</time>
      </trkpt>
      <trkpt lat="44.22547" lon="6.65122">
        <ele>1983.8</ele>
        <time>2022-10-16T07:06:26Z</time>
      </trkpt>
      <trkpt lat="44.22541" lon="6.65133">
        <ele>1986.2</ele>
        <time>2022-10-16T07:06:40Z</time>
      </trkpt>
      <trkpt lat="44.22536" lon="6.65144">
        <ele>1988.9</ele>
        <time>2022-10-16T07:06:55Z</time>
      </trkpt>
      <trkpt lat="44.22536" lon="6.65157">
        <ele>1990.5</ele>
        <time>2022-10-16T07:07:07Z</time>
      </trkpt>
      <trkpt lat="44.22533" lon="6.6517">
        <ele>1993.1</ele>
        <time>2022-10-16T07:07:25Z</time>
      </trkpt>
      <trkpt lat="44.22525" lon="6.65178">
        <ele>1995.4</ele>
        <time>2022-10-16T07:07:43Z</time>
      </trkpt>
      <trkpt lat="44.22526" lon="6.6519">
        <ele>1996.5</ele>
        <time>2022-10-16T07:07:51Z</time>
      </trkpt>
      <trkpt lat="44.22526" lon="6.65204">
        <ele>1998.9</ele>
        <time>2022-10-16T07:08:07Z</time>
      </trkpt>
      <trkpt lat="44.22533" lon="6.65212">
        <ele>2000.1</ele>
        <time>2022-10-16T07:09:29Z</time>
      </trkpt>
      <trkpt lat="44.22532" lon="6.65224">
        <ele>2002.2</ele>
        <time>2022-10-16T07:16:43Z</time>
      </trkpt>
      <trkpt lat="44.22534" lon="6.65236">
        <ele>2006.3</ele>
        <time>2022-10-16T07:17:05Z</time>
      </trkpt>
      <trkpt lat="44.2254" lon="6.65248">
        <ele>2008.3</ele>
        <time>2022-10-16T07:17:18Z</time>
      </trkpt>
      <trkpt lat="44.22544" lon="6.65261">
        <ele>2009.2</ele>
        <time>2022-10-16T07:17:29Z</time>
      </trkpt>
      <trkpt lat="44.22552" lon="6.65268">
        <ele>2011.9</ele>
        <time>2022-10-16T07:17:48Z</time>
      </trkpt>
      <trkpt lat="44.2256" lon="6.65275">
        <ele>2015.7</ele>
        <time>2022-10-16T07:18:11Z</time>
      </trkpt>
      <trkpt lat="44.22567" lon="6.65284">
        <ele>2019.8</ele>
        <time>2022-10-16T07:18:36Z</time>
      </trkpt>
      <trkpt lat="44.22575" lon="6.65288">
        <ele>2023.2</ele>
        <time>2022-10-16T07:19:23Z</time>
      </trkpt>
      <trkpt lat="44.22566" lon="6.65289">
        <ele>2025</ele>
        <time>2022-10-16T07:20:15Z</time>
      </trkpt>
      <trkpt lat="44.22571" lon="6.65299">
        <ele>2028.7</ele>
        <time>2022-10-16T07:20:52Z</time>
      </trkpt>
      <trkpt lat="44.2258" lon="6.65303">
        <ele>2031.5</ele>
        <time>2022-10-16T07:21:33Z</time>
      </trkpt>
      <trkpt lat="44.22589" lon="6.65305">
        <ele>2032.5</ele>
        <time>2022-10-16T07:21:42Z</time>
      </trkpt>
      <trkpt lat="44.22598" lon="6.65308">
        <ele>2034</ele>
        <time>2022-10-16T07:21:54Z</time>
      </trkpt>
      <trkpt lat="44.22606" lon="6.65315">
        <ele>2036.5</ele>
        <time>2022-10-16T07:22:06Z</time>
      </trkpt>
      <trkpt lat="44.22611" lon="6.65326">
        <ele>2038.9</ele>
        <time>2022-10-16T07:22:20Z</time>
      </trkpt>
      <trkpt lat="44.22617" lon="6.65336">
        <ele>2042.5</ele>
        <time>2022-10-16T07:22:38Z</time>
      </trkpt>
      <trkpt lat="44.22625" lon="6.65342">
        <ele>2045.1</ele>
        <time>2022-10-16T07:23:04Z</time>
      </trkpt>
      <trkpt lat="44.2263" lon="6.65354">
        <ele>2047.6</ele>
        <time>2022-10-16T07:23:30Z</time>
      </trkpt>
      <trkpt lat="44.22621" lon="6.65353">
        <ele>2053</ele>
        <time>2022-10-16T07:24:17Z</time>
      </trkpt>
      <trkpt lat="44.22611" lon="6.65353">
        <ele>2054.1</ele>
        <time>2022-10-16T07:24:31Z</time>
      </trkpt>
      <trkpt lat="44.22602" lon="6.65353">
        <ele>2055.4</ele>
        <time>2022-10-16T07:24:43Z</time>
      </trkpt>
      <trkpt lat="44.22593" lon="6.65354">
        <ele>2057.5</ele>
        <time>2022-10-16T07:25:00Z</time>
      </trkpt>
      <trkpt lat="44.22598" lon="6.65364">
        <ele>2059.9</ele>
        <time>2022-10-16T07:25:19Z</time>
      </trkpt>
      <trkpt lat="44.22591" lon="6.65372">
        <ele>2065.2</ele>
        <time>2022-10-16T07:25:56Z</time>
      </trkpt>
      <trkpt lat="44.22582" lon="6.65375">
        <ele>2067.2</ele>
        <time>2022-10-16T07:26:10Z</time>
      </trkpt>
      <trkpt lat="44.22572" lon="6.65376">
        <ele>2068.7</ele>
        <time>2022-10-16T07:26:27Z</time>
      </trkpt>
      <trkpt lat="44.22565" lon="6.65383">
        <ele>2071.9</ele>
        <time>2022-10-16T07:26:52Z</time>
      </trkpt>
      <trkpt lat="44.22556" lon="6.65389">
        <ele>2076.8</ele>
        <time>2022-10-16T07:27:32Z</time>
      </trkpt>
      <trkpt lat="44.22547" lon="6.65392">
        <ele>2080.2</ele>
        <time>2022-10-16T07:27:56Z</time>
      </trkpt>
      <trkpt lat="44.22538" lon="6.65392">
        <ele>2085.7</ele>
        <time>2022-10-16T07:28:46Z</time>
      </trkpt>
      <trkpt lat="44.2253" lon="6.65397">
        <ele>2087.6</ele>
        <time>2022-10-16T07:28:59Z</time>
      </trkpt>
      <trkpt lat="44.22521" lon="6.65403">
        <ele>2092</ele>
        <time>2022-10-16T07:29:26Z</time>
      </trkpt>
      <trkpt lat="44.22517" lon="6.65414">
        <ele>2094.4</ele>
        <time>2022-10-16T07:29:53Z</time>
      </trkpt>
      <trkpt lat="44.22518" lon="6.65427">
        <ele>2098.9</ele>
        <time>2022-10-16T07:33:54Z</time>
      </trkpt>
      <trkpt lat="44.22509" lon="6.65421">
        <ele>2100.4</ele>
        <time>2022-10-16T07:34:09Z</time>
      </trkpt>
      <trkpt lat="44.22501" lon="6.65424">
        <ele>2104.1</ele>
        <time>2022-10-16T07:34:26Z</time>
      </trkpt>
      <trkpt lat="44.22492" lon="6.65427">
        <ele>2107.7</ele>
        <time>2022-10-16T07:34:42Z</time>
      </trkpt>
      <trkpt lat="44.22484" lon="6.65435">
        <ele>2110.6</ele>
        <time>2022-10-16T07:35:03Z</time>
      </trkpt>
      <trkpt lat="44.22482" lon="6.65422">
        <ele>2111.5</ele>
        <time>2022-10-16T07:35:49Z</time>
      </trkpt>
      <trkpt lat="44.22481" lon="6.65409">
        <ele>2113.3</ele>
        <time>2022-10-16T07:36:01Z</time>
      </trkpt>
      <trkpt lat="44.22481" lon="6.65396">
        <ele>2114.7</ele>
        <time>2022-10-16T07:36:12Z</time>
      </trkpt>
      <trkpt lat="44.22476" lon="6.65386">
        <ele>2116.5</ele>
        <time>2022-10-16T07:36:25Z</time>
      </trkpt>
      <trkpt lat="44.22474" lon="6.65398">
        <ele>2114.5</ele>
        <time>2022-10-16T07:38:32Z</time>
      </trkpt>
      <trkpt lat="44.22477" lon="6.6541">
        <ele>2113.4</ele>
        <time>2022-10-16T07:38:42Z</time>
      </trkpt>
      <trkpt lat="44.22479" lon="6.65423">
        <ele>2111.1</ele>
        <time>2022-10-16T07:38:56Z</time>
      </trkpt>
      <trkpt lat="44.22483" lon="6.65435">
        <ele>2110.4</ele>
        <time>2022-10-16T07:39:20Z</time>
      </trkpt>
      <trkpt lat="44.22488" lon="6.65445">
        <ele>2110.8</ele>
        <time>2022-10-16T07:40:18Z</time>
      </trkpt>
      <trkpt lat="44.22494" lon="6.65456">
        <ele>2112.4</ele>
        <time>2022-10-16T07:40:31Z</time>
      </trkpt>
      <trkpt lat="44.22496" lon="6.65469">
        <ele>2114.4</ele>
        <time>2022-10-16T07:40:40Z</time>
      </trkpt>
      <trkpt lat="44.22497" lon="6.65482">
        <ele>2117.4</ele>
        <time>2022-10-16T07:40:54Z</time>
      </trkpt>
      <trkpt lat="44.22504" lon="6.6549">
        <ele>2119</ele>
        <time>2022-10-16T07:43:38Z</time>
      </trkpt>
      <trkpt lat="44.22506" lon="6.65502">
        <ele>2123.2</ele>
        <time>2022-10-16T07:44:24Z</time>
      </trkpt>
      <trkpt lat="44.22511" lon="6.65513">
        <ele>2126.4</ele>
        <time>2022-10-16T07:44:42Z</time>
      </trkpt>
      <trkpt lat="44.2252" lon="6.65515">
        <ele>2128.2</ele>
        <time>2022-10-16T07:44:58Z</time>
      </trkpt>
      <trkpt lat="44.2253" lon="6.65514">
        <ele>2130.4</ele>
        <time>2022-10-16T07:45:12Z</time>
      </trkpt>
      <trkpt lat="44.22539" lon="6.65515">
        <ele>2133</ele>
        <time>2022-10-16T07:45:31Z</time>
      </trkpt>
      <trkpt lat="44.22548" lon="6.65519">
        <ele>2135.2</ele>
        <time>2022-10-16T07:45:49Z</time>
      </trkpt>
      <trkpt lat="44.22556" lon="6.65525">
        <ele>2137.5</ele>
        <time>2022-10-16T07:46:05Z</time>
      </trkpt>
      <trkpt lat="44.22564" lon="6.65534">
        <ele>2141.7</ele>
        <time>2022-10-16T07:46:33Z</time>
      </trkpt>
      <trkpt lat="44.22569" lon="6.65545">
        <ele>2144.7</ele>
        <time>2022-10-16T07:46:51Z</time>
      </trkpt>
      <trkpt lat="44.22574" lon="6.65556">
        <ele>2147</ele>
        <time>2022-10-16T07:47:08Z</time>
      </trkpt>
      <trkpt lat="44.22577" lon="6.65568">
        <ele>2148.8</ele>
        <time>2022-10-16T07:47:23Z</time>
      </trkpt>
      <trkpt lat="44.2257" lon="6.65561">
        <ele>2151.7</ele>
        <time>2022-10-16T07:47:40Z</time>
      </trkpt>
      <trkpt lat="44.22563" lon="6.65569">
        <ele>2155.2</ele>
        <time>2022-10-16T07:48:07Z</time>
      </trkpt>
      <trkpt lat="44.22566" lon="6.65581">
        <ele>2157.1</ele>
        <time>2022-10-16T07:48:21Z</time>
      </trkpt>
      <trkpt lat="44.22557" lon="6.65576">
        <ele>2159.7</ele>
        <time>2022-10-16T07:48:43Z</time>
      </trkpt>
      <trkpt lat="44.22549" lon="6.65583">
        <ele>2162.9</ele>
        <time>2022-10-16T07:49:08Z</time>
      </trkpt>
      <trkpt lat="44.22548" lon="6.65597">
        <ele>2166.2</ele>
        <time>2022-10-16T07:49:25Z</time>
      </trkpt>
      <trkpt lat="44.22545" lon="6.65609">
        <ele>2168.1</ele>
        <time>2022-10-16T07:49:40Z</time>
      </trkpt>
      <trkpt lat="44.22538" lon="6.65618">
        <ele>2171.1</ele>
        <time>2022-10-16T07:49:56Z</time>
      </trkpt>
      <trkpt lat="44.22534" lon="6.6563">
        <ele>2173.3</ele>
        <time>2022-10-16T07:50:12Z</time>
      </trkpt>
      <trkpt lat="44.22535" lon="6.65643">
        <ele>2177</ele>
        <time>2022-10-16T07:51:04Z</time>
      </trkpt>
      <trkpt lat="44.22529" lon="6.65653">
        <ele>2179.7</ele>
        <time>2022-10-16T07:52:00Z</time>
      </trkpt>
      <trkpt lat="44.22523" lon="6.65664">
        <ele>2182.6</ele>
        <time>2022-10-16T07:52:15Z</time>
      </trkpt>
      <trkpt lat="44.22518" lon="6.65674">
        <ele>2184.6</ele>
        <time>2022-10-16T07:52:27Z</time>
      </trkpt>
      <trkpt lat="44.22515" lon="6.65687">
        <ele>2186.3</ele>
        <time>2022-10-16T07:53:02Z</time>
      </trkpt>
      <trkpt lat="44.22512" lon="6.65699">
        <ele>2187</ele>
        <time>2022-10-16T07:53:12Z</time>
      </trkpt>
      <trkpt lat="44.2251" lon="6.65712">
        <ele>2188.4</ele>
        <time>2022-10-16T07:53:23Z</time>
      </trkpt>
      <trkpt lat="44.22506" lon="6.65724">
        <ele>2190.3</ele>
        <time>2022-10-16T07:53:34Z</time>
      </trkpt>
      <trkpt lat="44.22503" lon="6.65736">
        <ele>2190.8</ele>
        <time>2022-10-16T07:53:46Z</time>
      </trkpt>
      <trkpt lat="44.22499" lon="6.65748">
        <ele>2191.2</ele>
        <time>2022-10-16T07:53:58Z</time>
      </trkpt>
      <trkpt lat="44.22495" lon="6.65759">
        <ele>2191.9</ele>
        <time>2022-10-16T07:54:24Z</time>
      </trkpt>
      <trkpt lat="44.22489" lon="6.65769">
        <ele>2191.8</ele>
        <time>2022-10-16T07:54:34Z</time>
      </trkpt>
      <trkpt lat="44.22482" lon="6.65778">
        <ele>2192.8</ele>
        <time>2022-10-16T07:54:45Z</time>
      </trkpt>
      <trkpt lat="44.22474" lon="6.65786">
        <ele>2193.6</ele>
        <time>2022-10-16T07:54:55Z</time>
      </trkpt>
      <trkpt lat="44.22468" lon="6.65795">
        <ele>2194.2</ele>
        <time>2022-10-16T07:55:04Z</time>
      </trkpt>
      <trkpt lat="44.22462" lon="6.65805">
        <ele>2195.3</ele>
        <time>2022-10-16T07:55:14Z</time>
      </trkpt>
      <trkpt lat="44.22454" lon="6.65812">
        <ele>2197.1</ele>
        <time>2022-10-16T07:55:26Z</time>
      </trkpt>
      <trkpt lat="44.22446" lon="6.65819">
        <ele>2199.5</ele>
        <time>2022-10-16T07:55:38Z</time>
      </trkpt>
      <trkpt lat="44.22439" lon="6.65828">
        <ele>2201.9</ele>
        <time>2022-10-16T07:55:50Z</time>
      </trkpt>
      <trkpt lat="44.22432" lon="6.65836">
        <ele>2204</ele>
        <time>2022-10-16T07:56:02Z</time>
      </trkpt>
      <trkpt lat="44.22427" lon="6.65847">
        <ele>2206.3</ele>
        <time>2022-10-16T07:56:17Z</time>
      </trkpt>
      <trkpt lat="44.22421" lon="6.65857">
        <ele>2209.2</ele>
        <time>2022-10-16T07:56:32Z</time>
      </trkpt>
      <trkpt lat="44.22416" lon="6.65868">
        <ele>2211.4</ele>
        <time>2022-10-16T07:56:47Z</time>
      </trkpt>
      <trkpt lat="44.22411" lon="6.65879">
        <ele>2214.3</ele>
        <time>2022-10-16T07:57:02Z</time>
      </trkpt>
      <trkpt lat="44.22405" lon="6.65889">
        <ele>2217</ele>
        <time>2022-10-16T07:57:16Z</time>
      </trkpt>
      <trkpt lat="44.22399" lon="6.65898">
        <ele>2219.3</ele>
        <time>2022-10-16T07:57:32Z</time>
      </trkpt>
      <trkpt lat="44.22391" lon="6.65905">
        <ele>2221</ele>
        <time>2022-10-16T07:57:44Z</time>
      </trkpt>
      <trkpt lat="44.22381" lon="6.65907">
        <ele>2222.4</ele>
        <time>2022-10-16T07:57:58Z</time>
      </trkpt>
      <trkpt lat="44.22386" lon="6.65896">
        <ele>2227.3</ele>
        <time>2022-10-16T07:58:31Z</time>
      </trkpt>
      <trkpt lat="44.22379" lon="6.65887">
        <ele>2230.9</ele>
        <time>2022-10-16T08:01:05Z</time>
      </trkpt>
      <trkpt lat="44.2237" lon="6.6589">
        <ele>2233.1</ele>
        <time>2022-10-16T08:01:58Z</time>
      </trkpt>
      <trkpt lat="44.22361" lon="6.6589">
        <ele>2234.7</ele>
        <time>2022-10-16T08:03:04Z</time>
      </trkpt>
      <trkpt lat="44.22352" lon="6.6589">
        <ele>2236.8</ele>
        <time>2022-10-16T08:03:18Z</time>
      </trkpt>
      <trkpt lat="44.22343" lon="6.6589">
        <ele>2239.2</ele>
        <time>2022-10-16T08:03:32Z</time>
      </trkpt>
      <trkpt lat="44.22333" lon="6.6589">
        <ele>2241.4</ele>
        <time>2022-10-16T08:03:45Z</time>
      </trkpt>
      <trkpt lat="44.22324" lon="6.65892">
        <ele>2243.9</ele>
        <time>2022-10-16T08:04:00Z</time>
      </trkpt>
      <trkpt lat="44.22318" lon="6.65902">
        <ele>2247.1</ele>
        <time>2022-10-16T08:04:18Z</time>
      </trkpt>
      <trkpt lat="44.22311" lon="6.65911">
        <ele>2251.4</ele>
        <time>2022-10-16T08:04:39Z</time>
      </trkpt>
      <trkpt lat="44.22302" lon="6.65913">
        <ele>2255.4</ele>
        <time>2022-10-16T08:05:01Z</time>
      </trkpt>
      <trkpt lat="44.22295" lon="6.6592">
        <ele>2259.3</ele>
        <time>2022-10-16T08:05:23Z</time>
      </trkpt>
      <trkpt lat="44.22286" lon="6.65926">
        <ele>2262.9</ele>
        <time>2022-10-16T08:05:43Z</time>
      </trkpt>
      <trkpt lat="44.22279" lon="6.65933">
        <ele>2265.9</ele>
        <time>2022-10-16T08:06:02Z</time>
      </trkpt>
      <trkpt lat="44.22271" lon="6.65941">
        <ele>2268.7</ele>
        <time>2022-10-16T08:06:20Z</time>
      </trkpt>
      <trkpt lat="44.22263" lon="6.65945">
        <ele>2272.3</ele>
        <time>2022-10-16T08:06:40Z</time>
      </trkpt>
      <trkpt lat="44.22255" lon="6.65952">
        <ele>2277.8</ele>
        <time>2022-10-16T08:07:07Z</time>
      </trkpt>
      <trkpt lat="44.2225" lon="6.65963">
        <ele>2281.4</ele>
        <time>2022-10-16T08:07:26Z</time>
      </trkpt>
      <trkpt lat="44.22242" lon="6.65969">
        <ele>2285.3</ele>
        <time>2022-10-16T08:07:43Z</time>
      </trkpt>
      <trkpt lat="44.22235" lon="6.65978">
        <ele>2290.2</ele>
        <time>2022-10-16T08:08:03Z</time>
      </trkpt>
      <trkpt lat="44.2223" lon="6.65989">
        <ele>2295.2</ele>
        <time>2022-10-16T08:08:23Z</time>
      </trkpt>
      <trkpt lat="44.22225" lon="6.66">
        <ele>2298.8</ele>
        <time>2022-10-16T08:08:41Z</time>
      </trkpt>
      <trkpt lat="44.22217" lon="6.66007">
        <ele>2305</ele>
        <time>2022-10-16T08:09:12Z</time>
      </trkpt>
      <trkpt lat="44.22213" lon="6.66018">
        <ele>2308.6</ele>
        <time>2022-10-16T08:09:28Z</time>
      </trkpt>
      <trkpt lat="44.2221" lon="6.66031">
        <ele>2311.9</ele>
        <time>2022-10-16T08:09:56Z</time>
      </trkpt>
      <trkpt lat="44.22205" lon="6.66042">
        <ele>2315.1</ele>
        <time>2022-10-16T08:10:09Z</time>
      </trkpt>
      <trkpt lat="44.22201" lon="6.66053">
        <ele>2319.5</ele>
        <time>2022-10-16T08:10:26Z</time>
      </trkpt>
      <trkpt lat="44.22195" lon="6.66064">
        <ele>2322.8</ele>
        <time>2022-10-16T08:10:41Z</time>
      </trkpt>
      <trkpt lat="44.22189" lon="6.66074">
        <ele>2326.4</ele>
        <time>2022-10-16T08:10:57Z</time>
      </trkpt>
      <trkpt lat="44.22182" lon="6.66083">
        <ele>2330.5</ele>
        <time>2022-10-16T08:11:14Z</time>
      </trkpt>
      <trkpt lat="44.22175" lon="6.66093">
        <ele>2334.4</ele>
        <time>2022-10-16T08:11:33Z</time>
      </trkpt>
      <trkpt lat="44.22168" lon="6.661">
        <ele>2337.2</ele>
        <time>2022-10-16T08:11:47Z</time>
      </trkpt>
      <trkpt lat="44.22159" lon="6.66105">
        <ele>2339</ele>
        <time>2022-10-16T08:11:58Z</time>
      </trkpt>
      <trkpt lat="44.22153" lon="6.66114">
        <ele>2341.7</ele>
        <time>2022-10-16T08:12:12Z</time>
      </trkpt>
      <trkpt lat="44.22152" lon="6.66101">
        <ele>2351.8</ele>
        <time>2022-10-16T08:13:01Z</time>
      </trkpt>
      <trkpt lat="44.22143" lon="6.66097">
        <ele>2356.9</ele>
        <time>2022-10-16T08:13:28Z</time>
      </trkpt>
      <trkpt lat="44.22135" lon="6.66089">
        <ele>2363.9</ele>
        <time>2022-10-16T08:14:03Z</time>
      </trkpt>
      <trkpt lat="44.22128" lon="6.66081">
        <ele>2369.6</ele>
        <time>2022-10-16T08:14:26Z</time>
      </trkpt>
      <trkpt lat="44.22119" lon="6.66076">
        <ele>2374.3</ele>
        <time>2022-10-16T08:14:46Z</time>
      </trkpt>
      <trkpt lat="44.22111" lon="6.66073">
        <ele>2377.2</ele>
        <time>2022-10-16T08:14:59Z</time>
      </trkpt>
      <trkpt lat="44.22101" lon="6.66071">
        <ele>2378.7</ele>
        <time>2022-10-16T08:15:09Z</time>
      </trkpt>
      <trkpt lat="44.22095" lon="6.66062">
        <ele>2382.4</ele>
        <time>2022-10-16T08:15:31Z</time>
      </trkpt>
      <trkpt lat="44.22091" lon="6.66074">
        <ele>2383.3</ele>
        <time>2022-10-16T08:16:12Z</time>
      </trkpt>
      <trkpt lat="44.2209" lon="6.66087">
        <ele>2383.4</ele>
        <time>2022-10-16T08:16:21Z</time>
      </trkpt>
      <trkpt lat="44.2209" lon="6.661">
        <ele>2385.2</ele>
        <time>2022-10-16T08:16:34Z</time>
      </trkpt>
      <trkpt lat="44.22096" lon="6.66109">
        <ele>2387</ele>
        <time>2022-10-16T08:16:52Z</time>
      </trkpt>
      <trkpt lat="44.22094" lon="6.66096">
        <ele>2386.5</ele>
        <time>2022-10-16T08:17:47Z</time>
      </trkpt>
      <trkpt lat="44.22093" lon="6.66083">
        <ele>2384.8</ele>
        <time>2022-10-16T08:18:01Z</time>
      </trkpt>
      <trkpt lat="44.22094" lon="6.6607">
        <ele>2384.4</ele>
        <time>2022-10-16T08:18:15Z</time>
      </trkpt>
      <trkpt lat="44.221" lon="6.6606">
        <ele>2385.6</ele>
        <time>2022-10-16T08:25:55Z</time>
      </trkpt>
      <trkpt lat="44.22106" lon="6.66049">
        <ele>2388.9</ele>
        <time>2022-10-16T08:26:16Z</time>
      </trkpt>
      <trkpt lat="44.22112" lon="6.6604">
        <ele>2392.6</ele>
        <time>2022-10-16T08:26:34Z</time>
      </trkpt>
      <trkpt lat="44.22119" lon="6.6603">
        <ele>2396.1</ele>
        <time>2022-10-16T08:26:51Z</time>
      </trkpt>
      <trkpt lat="44.22126" lon="6.66023">
        <ele>2399.5</ele>
        <time>2022-10-16T08:27:11Z</time>
      </trkpt>
      <trkpt lat="44.22133" lon="6.66015">
        <ele>2402.3</ele>
        <time>2022-10-16T08:27:34Z</time>
      </trkpt>
      <trkpt lat="44.22141" lon="6.6601">
        <ele>2406.4</ele>
        <time>2022-10-16T08:27:54Z</time>
      </trkpt>
      <trkpt lat="44.2215" lon="6.66005">
        <ele>2408.8</ele>
        <time>2022-10-16T08:28:13Z</time>
      </trkpt>
      <trkpt lat="44.22155" lon="6.65994">
        <ele>2411.7</ele>
        <time>2022-10-16T08:28:42Z</time>
      </trkpt>
      <trkpt lat="44.22147" lon="6.66">
        <ele>2409.5</ele>
        <time>2022-10-16T08:42:06Z</time>
      </trkpt>
      <trkpt lat="44.22138" lon="6.66004">
        <ele>2406</ele>
        <time>2022-10-16T08:43:09Z</time>
      </trkpt>
      <trkpt lat="44.22129" lon="6.6601">
        <ele>2402.2</ele>
        <time>2022-10-16T08:43:24Z</time>
      </trkpt>
      <trkpt lat="44.22123" lon="6.66019">
        <ele>2398.7</ele>
        <time>2022-10-16T08:43:37Z</time>
      </trkpt>
      <trkpt lat="44.22115" lon="6.66028">
        <ele>2395.4</ele>
        <time>2022-10-16T08:43:49Z</time>
      </trkpt>
      <trkpt lat="44.22108" lon="6.66036">
        <ele>2392.1</ele>
        <time>2022-10-16T08:44:03Z</time>
      </trkpt>
      <trkpt lat="44.22104" lon="6.66048">
        <ele>2388.5</ele>
        <time>2022-10-16T08:44:19Z</time>
      </trkpt>
      <trkpt lat="44.22096" lon="6.66056">
        <ele>2386</ele>
        <time>2022-10-16T08:44:30Z</time>
      </trkpt>
      <trkpt lat="44.2209" lon="6.66066">
        <ele>2383.2</ele>
        <time>2022-10-16T08:47:06Z</time>
      </trkpt>
      <trkpt lat="44.2209" lon="6.6608">
        <ele>2382.9</ele>
        <time>2022-10-16T08:47:16Z</time>
      </trkpt>
      <trkpt lat="44.2209" lon="6.66094">
        <ele>2384.2</ele>
        <time>2022-10-16T08:47:26Z</time>
      </trkpt>
      <trkpt lat="44.22094" lon="6.66106">
        <ele>2385.6</ele>
        <time>2022-10-16T08:47:35Z</time>
      </trkpt>
      <trkpt lat="44.22093" lon="6.66093">
        <ele>2384.3</ele>
        <time>2022-10-16T08:48:55Z</time>
      </trkpt>
      <trkpt lat="44.22094" lon="6.6608">
        <ele>2383.3</ele>
        <time>2022-10-16T08:49:06Z</time>
      </trkpt>
      <trkpt lat="44.22103" lon="6.6608">
        <ele>2380.1</ele>
        <time>2022-10-16T08:49:38Z</time>
      </trkpt>
      <trkpt lat="44.22112" lon="6.66084">
        <ele>2378.4</ele>
        <time>2022-10-16T08:49:49Z</time>
      </trkpt>
      <trkpt lat="44.2212" lon="6.66088">
        <ele>2374.5</ele>
        <time>2022-10-16T08:50:08Z</time>
      </trkpt>
      <trkpt lat="44.22129" lon="6.66093">
        <ele>2369.9</ele>
        <time>2022-10-16T08:51:16Z</time>
      </trkpt>
      <trkpt lat="44.22137" lon="6.661">
        <ele>2363.2</ele>
        <time>2022-10-16T08:51:44Z</time>
      </trkpt>
      <trkpt lat="44.22146" lon="6.66097">
        <ele>2359.4</ele>
        <time>2022-10-16T08:52:04Z</time>
      </trkpt>
      <trkpt lat="44.2215" lon="6.66108">
        <ele>2353.9</ele>
        <time>2022-10-16T08:52:34Z</time>
      </trkpt>
      <trkpt lat="44.22158" lon="6.66115">
        <ele>2345.4</ele>
        <time>2022-10-16T08:53:13Z</time>
      </trkpt>
      <trkpt lat="44.22166" lon="6.6611">
        <ele>2342.7</ele>
        <time>2022-10-16T08:53:27Z</time>
      </trkpt>
      <trkpt lat="44.22175" lon="6.66105">
        <ele>2340.5</ele>
        <time>2022-10-16T08:53:39Z</time>
      </trkpt>
      <trkpt lat="44.22181" lon="6.66096">
        <ele>2337</ele>
        <time>2022-10-16T08:53:56Z</time>
      </trkpt>
      <trkpt lat="44.22187" lon="6.66085">
        <ele>2334.2</ele>
        <time>2022-10-16T08:55:04Z</time>
      </trkpt>
      <trkpt lat="44.22194" lon="6.66076">
        <ele>2331.3</ele>
        <time>2022-10-16T08:55:17Z</time>
      </trkpt>
      <trkpt lat="44.22199" lon="6.66065">
        <ele>2328</ele>
        <time>2022-10-16T08:55:30Z</time>
      </trkpt>
      <trkpt lat="44.22204" lon="6.66054">
        <ele>2324.6</ele>
        <time>2022-10-16T08:55:40Z</time>
      </trkpt>
      <trkpt lat="44.22209" lon="6.66043">
        <ele>2321.3</ele>
        <time>2022-10-16T08:55:49Z</time>
      </trkpt>
      <trkpt lat="44.22214" lon="6.66032">
        <ele>2318</ele>
        <time>2022-10-16T08:55:59Z</time>
      </trkpt>
      <trkpt lat="44.22216" lon="6.66019">
        <ele>2315.4</ele>
        <time>2022-10-16T08:56:12Z</time>
      </trkpt>
      <trkpt lat="44.22215" lon="6.66006">
        <ele>2312.3</ele>
        <time>2022-10-16T08:56:48Z</time>
      </trkpt>
      <trkpt lat="44.22224" lon="6.66004">
        <ele>2307.3</ele>
        <time>2022-10-16T08:57:09Z</time>
      </trkpt>
      <trkpt lat="44.2223" lon="6.65993">
        <ele>2304.2</ele>
        <time>2022-10-16T08:57:22Z</time>
      </trkpt>
      <trkpt lat="44.22237" lon="6.65985">
        <ele>2299.8</ele>
        <time>2022-10-16T08:57:36Z</time>
      </trkpt>
      <trkpt lat="44.22245" lon="6.65977">
        <ele>2295.3</ele>
        <time>2022-10-16T08:57:48Z</time>
      </trkpt>
      <trkpt lat="44.22251" lon="6.65967">
        <ele>2291.1</ele>
        <time>2022-10-16T08:57:59Z</time>
      </trkpt>
      <trkpt lat="44.22257" lon="6.65957">
        <ele>2287.3</ele>
        <time>2022-10-16T08:58:12Z</time>
      </trkpt>
      <trkpt lat="44.22265" lon="6.6595">
        <ele>2282.8</ele>
        <time>2022-10-16T08:58:26Z</time>
      </trkpt>
      <trkpt lat="44.22273" lon="6.65944">
        <ele>2279.9</ele>
        <time>2022-10-16T08:58:34Z</time>
      </trkpt>
      <trkpt lat="44.22282" lon="6.65937">
        <ele>2276.5</ele>
        <time>2022-10-16T08:58:42Z</time>
      </trkpt>
      <trkpt lat="44.2229" lon="6.6593">
        <ele>2273.2</ele>
        <time>2022-10-16T08:58:51Z</time>
      </trkpt>
      <trkpt lat="44.22298" lon="6.65923">
        <ele>2269.7</ele>
        <time>2022-10-16T08:59:04Z</time>
      </trkpt>
      <trkpt lat="44.22306" lon="6.65916">
        <ele>2265.9</ele>
        <time>2022-10-16T08:59:20Z</time>
      </trkpt>
      <trkpt lat="44.22315" lon="6.65916">
        <ele>2262.5</ele>
        <time>2022-10-16T08:59:33Z</time>
      </trkpt>
      <trkpt lat="44.22321" lon="6.65906">
        <ele>2259.5</ele>
        <time>2022-10-16T08:59:44Z</time>
      </trkpt>
      <trkpt lat="44.22329" lon="6.65899">
        <ele>2255.4</ele>
        <time>2022-10-16T08:59:59Z</time>
      </trkpt>
      <trkpt lat="44.22339" lon="6.65897">
        <ele>2252.2</ele>
        <time>2022-10-16T09:00:13Z</time>
      </trkpt>
      <trkpt lat="44.22348" lon="6.65896">
        <ele>2250</ele>
        <time>2022-10-16T09:00:32Z</time>
      </trkpt>
      <trkpt lat="44.22358" lon="6.65896">
        <ele>2247.3</ele>
        <time>2022-10-16T09:00:50Z</time>
      </trkpt>
      <trkpt lat="44.22367" lon="6.65896">
        <ele>2245.6</ele>
        <time>2022-10-16T09:01:03Z</time>
      </trkpt>
      <trkpt lat="44.22376" lon="6.65894">
        <ele>2243.9</ele>
        <time>2022-10-16T09:01:16Z</time>
      </trkpt>
      <trkpt lat="44.22383" lon="6.65888">
        <ele>2242.5</ele>
        <time>2022-10-16T09:06:11Z</time>
      </trkpt>
      <trkpt lat="44.22389" lon="6.65878">
        <ele>2238.9</ele>
        <time>2022-10-16T09:13:13Z</time>
      </trkpt>
      <trkpt lat="44.22398" lon="6.65874">
        <ele>2236.8</ele>
        <time>2022-10-16T09:13:31Z</time>
      </trkpt>
      <trkpt lat="44.22405" lon="6.65866">
        <ele>2233.6</ele>
        <time>2022-10-16T09:14:31Z</time>
      </trkpt>
      <trkpt lat="44.22411" lon="6.65856">
        <ele>2230.8</ele>
        <time>2022-10-16T09:14:50Z</time>
      </trkpt>
      <trkpt lat="44.22418" lon="6.65847">
        <ele>2228.2</ele>
        <time>2022-10-16T09:15:09Z</time>
      </trkpt>
      <trkpt lat="44.22426" lon="6.6584">
        <ele>2224.6</ele>
        <time>2022-10-16T09:15:35Z</time>
      </trkpt>
      <trkpt lat="44.22435" lon="6.65836">
        <ele>2221.2</ele>
        <time>2022-10-16T09:15:56Z</time>
      </trkpt>
      <trkpt lat="44.22442" lon="6.65828">
        <ele>2218.5</ele>
        <time>2022-10-16T09:16:14Z</time>
      </trkpt>
      <trkpt lat="44.22449" lon="6.6582">
        <ele>2215.8</ele>
        <time>2022-10-16T09:16:30Z</time>
      </trkpt>
      <trkpt lat="44.22457" lon="6.65813">
        <ele>2213.2</ele>
        <time>2022-10-16T09:16:44Z</time>
      </trkpt>
      <trkpt lat="44.22465" lon="6.65806">
        <ele>2211.3</ele>
        <time>2022-10-16T09:16:59Z</time>
      </trkpt>
      <trkpt lat="44.22472" lon="6.65796">
        <ele>2210.2</ele>
        <time>2022-10-16T09:17:21Z</time>
      </trkpt>
      <trkpt lat="44.22479" lon="6.65789">
        <ele>2209.3</ele>
        <time>2022-10-16T09:17:35Z</time>
      </trkpt>
      <trkpt lat="44.22487" lon="6.65783">
        <ele>2208.4</ele>
        <time>2022-10-16T09:17:49Z</time>
      </trkpt>
      <trkpt lat="44.22494" lon="6.65773">
        <ele>2207.5</ele>
        <time>2022-10-16T09:17:59Z</time>
      </trkpt>
      <trkpt lat="44.225" lon="6.65764">
        <ele>2207.2</ele>
        <time>2022-10-16T09:18:08Z</time>
      </trkpt>
      <trkpt lat="44.22506" lon="6.65754">
        <ele>2207.4</ele>
        <time>2022-10-16T09:18:23Z</time>
      </trkpt>
      <trkpt lat="44.2251" lon="6.65742">
        <ele>2207.5</ele>
        <time>2022-10-16T09:18:37Z</time>
      </trkpt>
      <trkpt lat="44.22513" lon="6.65729">
        <ele>2206.7</ele>
        <time>2022-10-16T09:18:59Z</time>
      </trkpt>
      <trkpt lat="44.22516" lon="6.65717">
        <ele>2206</ele>
        <time>2022-10-16T09:20:04Z</time>
      </trkpt>
      <trkpt lat="44.2252" lon="6.65705">
        <ele>2204.9</ele>
        <time>2022-10-16T09:20:23Z</time>
      </trkpt>
      <trkpt lat="44.22523" lon="6.65693">
        <ele>2203.8</ele>
        <time>2022-10-16T09:20:35Z</time>
      </trkpt>
      <trkpt lat="44.22526" lon="6.65681">
        <ele>2202.9</ele>
        <time>2022-10-16T09:20:45Z</time>
      </trkpt>
      <trkpt lat="44.2253" lon="6.65668">
        <ele>2201.4</ele>
        <time>2022-10-16T09:20:58Z</time>
      </trkpt>
      <trkpt lat="44.22535" lon="6.65657">
        <ele>2198.5</ele>
        <time>2022-10-16T09:21:10Z</time>
      </trkpt>
      <trkpt lat="44.2254" lon="6.65645">
        <ele>2195.8</ele>
        <time>2022-10-16T09:21:21Z</time>
      </trkpt>
      <trkpt lat="44.22543" lon="6.65633">
        <ele>2193.4</ele>
        <time>2022-10-16T09:21:32Z</time>
      </trkpt>
      <trkpt lat="44.22546" lon="6.65621">
        <ele>2191.5</ele>
        <time>2022-10-16T09:21:43Z</time>
      </trkpt>
      <trkpt lat="44.22548" lon="6.65608">
        <ele>2188.9</ele>
        <time>2022-10-16T09:22:06Z</time>
      </trkpt>
      <trkpt lat="44.22551" lon="6.65595">
        <ele>2186.4</ele>
        <time>2022-10-16T09:22:23Z</time>
      </trkpt>
      <trkpt lat="44.22552" lon="6.65582">
        <ele>2184.4</ele>
        <time>2022-10-16T09:22:35Z</time>
      </trkpt>
      <trkpt lat="44.22561" lon="6.65582">
        <ele>2180.5</ele>
        <time>2022-10-16T09:22:57Z</time>
      </trkpt>
      <trkpt lat="44.22563" lon="6.65569">
        <ele>2176.7</ele>
        <time>2022-10-16T09:23:52Z</time>
      </trkpt>
      <trkpt lat="44.22572" lon="6.65566">
        <ele>2172.7</ele>
        <time>2022-10-16T09:24:11Z</time>
      </trkpt>
      <trkpt lat="44.22576" lon="6.65554">
        <ele>2169.3</ele>
        <time>2022-10-16T09:25:21Z</time>
      </trkpt>
      <trkpt lat="44.22573" lon="6.65542">
        <ele>2166.6</ele>
        <time>2022-10-16T09:25:35Z</time>
      </trkpt>
      <trkpt lat="44.22568" lon="6.65531">
        <ele>2164</ele>
        <time>2022-10-16T09:26:25Z</time>
      </trkpt>
      <trkpt lat="44.22562" lon="6.65522">
        <ele>2161.1</ele>
        <time>2022-10-16T09:26:41Z</time>
      </trkpt>
      <trkpt lat="44.22553" lon="6.65517">
        <ele>2158.3</ele>
        <time>2022-10-16T09:26:54Z</time>
      </trkpt>
      <trkpt lat="44.22544" lon="6.65513">
        <ele>2156.3</ele>
        <time>2022-10-16T09:27:05Z</time>
      </trkpt>
      <trkpt lat="44.22535" lon="6.65511">
        <ele>2153.5</ele>
        <time>2022-10-16T09:27:15Z</time>
      </trkpt>
      <trkpt lat="44.22526" lon="6.65513">
        <ele>2151.8</ele>
        <time>2022-10-16T09:27:24Z</time>
      </trkpt>
      <trkpt lat="44.22516" lon="6.65513">
        <ele>2149.6</ele>
        <time>2022-10-16T09:27:34Z</time>
      </trkpt>
      <trkpt lat="44.22511" lon="6.65504">
        <ele>2145.5</ele>
        <time>2022-10-16T09:27:50Z</time>
      </trkpt>
      <trkpt lat="44.22504" lon="6.65494">
        <ele>2142.3</ele>
        <time>2022-10-16T09:28:03Z</time>
      </trkpt>
      <trkpt lat="44.22501" lon="6.65482">
        <ele>2138.2</ele>
        <time>2022-10-16T09:28:15Z</time>
      </trkpt>
      <trkpt lat="44.22499" lon="6.65469">
        <ele>2134.6</ele>
        <time>2022-10-16T09:28:28Z</time>
      </trkpt>
      <trkpt lat="44.22496" lon="6.65456">
        <ele>2132.3</ele>
        <time>2022-10-16T09:28:39Z</time>
      </trkpt>
      <trkpt lat="44.22492" lon="6.65444">
        <ele>2130.9</ele>
        <time>2022-10-16T09:28:47Z</time>
      </trkpt>
      <trkpt lat="44.22499" lon="6.65435">
        <ele>2125.8</ele>
        <time>2022-10-16T09:29:22Z</time>
      </trkpt>
      <trkpt lat="44.22507" lon="6.65429">
        <ele>2122.9</ele>
        <time>2022-10-16T09:29:48Z</time>
      </trkpt>
      <trkpt lat="44.22516" lon="6.65433">
        <ele>2118.5</ele>
        <time>2022-10-16T09:30:16Z</time>
      </trkpt>
      <trkpt lat="44.22524" lon="6.65427">
        <ele>2116.8</ele>
        <time>2022-10-16T09:30:30Z</time>
      </trkpt>
      <trkpt lat="44.22527" lon="6.65415">
        <ele>2113.9</ele>
        <time>2022-10-16T09:30:48Z</time>
      </trkpt>
      <trkpt lat="44.22529" lon="6.65403">
        <ele>2108.9</ele>
        <time>2022-10-16T09:31:27Z</time>
      </trkpt>
      <trkpt lat="44.22536" lon="6.65395">
        <ele>2105.2</ele>
        <time>2022-10-16T09:31:55Z</time>
      </trkpt>
      <trkpt lat="44.22546" lon="6.65396">
        <ele>2100.2</ele>
        <time>2022-10-16T09:32:42Z</time>
      </trkpt>
      <trkpt lat="44.22555" lon="6.65392">
        <ele>2097.4</ele>
        <time>2022-10-16T09:32:57Z</time>
      </trkpt>
      <trkpt lat="44.22564" lon="6.65388">
        <ele>2092.9</ele>
        <time>2022-10-16T09:33:19Z</time>
      </trkpt>
      <trkpt lat="44.2257" lon="6.65378">
        <ele>2089</ele>
        <time>2022-10-16T09:33:39Z</time>
      </trkpt>
      <trkpt lat="44.2258" lon="6.65377">
        <ele>2086.6</ele>
        <time>2022-10-16T09:33:50Z</time>
      </trkpt>
      <trkpt lat="44.22589" lon="6.65375">
        <ele>2085.5</ele>
        <time>2022-10-16T09:34:01Z</time>
      </trkpt>
      <trkpt lat="44.22598" lon="6.65373">
        <ele>2083.3</ele>
        <time>2022-10-16T09:34:16Z</time>
      </trkpt>
      <trkpt lat="44.22596" lon="6.6536">
        <ele>2078.4</ele>
        <time>2022-10-16T09:35:00Z</time>
      </trkpt>
      <trkpt lat="44.22605" lon="6.65358">
        <ele>2075</ele>
        <time>2022-10-16T09:35:22Z</time>
      </trkpt>
      <trkpt lat="44.22615" lon="6.65357">
        <ele>2073.1</ele>
        <time>2022-10-16T09:35:32Z</time>
      </trkpt>
      <trkpt lat="44.22624" lon="6.6536">
        <ele>2072.3</ele>
        <time>2022-10-16T09:35:42Z</time>
      </trkpt>
      <trkpt lat="44.22634" lon="6.65362">
        <ele>2069.9</ele>
        <time>2022-10-16T09:35:55Z</time>
      </trkpt>
      <trkpt lat="44.22631" lon="6.6535">
        <ele>2067.5</ele>
        <time>2022-10-16T09:36:12Z</time>
      </trkpt>
      <trkpt lat="44.22626" lon="6.65338">
        <ele>2064.4</ele>
        <time>2022-10-16T09:36:31Z</time>
      </trkpt>
      <trkpt lat="44.22619" lon="6.65331">
        <ele>2061.3</ele>
        <time>2022-10-16T09:36:48Z</time>
      </trkpt>
      <trkpt lat="44.22615" lon="6.65318">
        <ele>2058.6</ele>
        <time>2022-10-16T09:37:08Z</time>
      </trkpt>
      <trkpt lat="44.2261" lon="6.65308">
        <ele>2055.6</ele>
        <time>2022-10-16T09:37:25Z</time>
      </trkpt>
      <trkpt lat="44.226" lon="6.65304">
        <ele>2053.2</ele>
        <time>2022-10-16T09:37:39Z</time>
      </trkpt>
      <trkpt lat="44.22591" lon="6.65303">
        <ele>2051.5</ele>
        <time>2022-10-16T09:37:49Z</time>
      </trkpt>
      <trkpt lat="44.22583" lon="6.65297">
        <ele>2049.6</ele>
        <time>2022-10-16T09:38:02Z</time>
      </trkpt>
      <trkpt lat="44.22575" lon="6.65291">
        <ele>2047.1</ele>
        <time>2022-10-16T09:38:16Z</time>
      </trkpt>
      <trkpt lat="44.22577" lon="6.65279">
        <ele>2039.7</ele>
        <time>2022-10-16T09:39:05Z</time>
      </trkpt>
      <trkpt lat="44.22569" lon="6.65274">
        <ele>2036.3</ele>
        <time>2022-10-16T09:39:28Z</time>
      </trkpt>
      <trkpt lat="44.2256" lon="6.65269">
        <ele>2031.5</ele>
        <time>2022-10-16T09:40:25Z</time>
      </trkpt>
      <trkpt lat="44.22553" lon="6.65261">
        <ele>2027.7</ele>
        <time>2022-10-16T09:40:39Z</time>
      </trkpt>
      <trkpt lat="44.22547" lon="6.6525">
        <ele>2026.3</ele>
        <time>2022-10-16T09:40:47Z</time>
      </trkpt>
      <trkpt lat="44.22543" lon="6.65239">
        <ele>2024.1</ele>
        <time>2022-10-16T09:40:59Z</time>
      </trkpt>
      <trkpt lat="44.2254" lon="6.65227">
        <ele>2021.1</ele>
        <time>2022-10-16T09:41:09Z</time>
      </trkpt>
      <trkpt lat="44.22534" lon="6.65217">
        <ele>2018.7</ele>
        <time>2022-10-16T09:41:19Z</time>
      </trkpt>
      <trkpt lat="44.22531" lon="6.65205">
        <ele>2016.3</ele>
        <time>2022-10-16T09:41:29Z</time>
      </trkpt>
      <trkpt lat="44.22535" lon="6.65193">
        <ele>2012.1</ele>
        <time>2022-10-16T09:41:46Z</time>
      </trkpt>
      <trkpt lat="44.22542" lon="6.65185">
        <ele>2010.2</ele>
        <time>2022-10-16T09:41:58Z</time>
      </trkpt>
      <trkpt lat="44.22544" lon="6.65172">
        <ele>2007.2</ele>
        <time>2022-10-16T09:42:10Z</time>
      </trkpt>
      <trkpt lat="44.22536" lon="6.65167">
        <ele>2007</ele>
        <time>2022-10-16T09:48:30Z</time>
      </trkpt>
      <trkpt lat="44.22542" lon="6.65157">
        <ele>2006</ele>
        <time>2022-10-16T09:49:01Z</time>
      </trkpt>
      <trkpt lat="44.22546" lon="6.65146">
        <ele>2002.1</ele>
        <time>2022-10-16T09:49:24Z</time>
      </trkpt>
      <trkpt lat="44.22549" lon="6.65133">
        <ele>1999.9</ele>
        <time>2022-10-16T09:49:34Z</time>
      </trkpt>
      <trkpt lat="44.22558" lon="6.65127">
        <ele>1996.3</ele>
        <time>2022-10-16T09:49:57Z</time>
      </trkpt>
      <trkpt lat="44.22566" lon="6.65122">
        <ele>1994.1</ele>
        <time>2022-10-16T09:50:09Z</time>
      </trkpt>
      <trkpt lat="44.22576" lon="6.65115">
        <ele>1992.1</ele>
        <time>2022-10-16T09:50:22Z</time>
      </trkpt>
      <trkpt lat="44.22584" lon="6.65109">
        <ele>1988.1</ele>
        <time>2022-10-16T09:51:00Z</time>
      </trkpt>
      <trkpt lat="44.22593" lon="6.6511">
        <ele>1984.2</ele>
        <time>2022-10-16T09:51:29Z</time>
      </trkpt>
      <trkpt lat="44.22601" lon="6.65103">
        <ele>1981.3</ele>
        <time>2022-10-16T09:52:00Z</time>
      </trkpt>
      <trkpt lat="44.22601" lon="6.65115">
        <ele>1978.6</ele>
        <time>2022-10-16T09:52:49Z</time>
      </trkpt>
      <trkpt lat="44.22604" lon="6.65128">
        <ele>1975.7</ele>
        <time>2022-10-16T09:53:06Z</time>
      </trkpt>
      <trkpt lat="44.22607" lon="6.6514">
        <ele>1974.6</ele>
        <time>2022-10-16T09:53:17Z</time>
      </trkpt>
      <trkpt lat="44.22616" lon="6.65147">
        <ele>1974.6</ele>
        <time>2022-10-16T09:53:30Z</time>
      </trkpt>
      <trkpt lat="44.22625" lon="6.65152">
        <ele>1974.9</ele>
        <time>2022-10-16T09:53:45Z</time>
      </trkpt>
      <trkpt lat="44.22634" lon="6.65157">
        <ele>1974.6</ele>
        <time>2022-10-16T09:53:53Z</time>
      </trkpt>
      <trkpt lat="44.22642" lon="6.65164">
        <ele>1973.2</ele>
        <time>2022-10-16T09:54:08Z</time>
      </trkpt>
      <trkpt lat="44.22649" lon="6.65175">
        <ele>1973.2</ele>
        <time>2022-10-16T09:54:18Z</time>
      </trkpt>
      <trkpt lat="44.22658" lon="6.65178">
        <ele>1971.3</ele>
        <time>2022-10-16T09:54:31Z</time>
      </trkpt>
      <trkpt lat="44.22667" lon="6.65183">
        <ele>1968.2</ele>
        <time>2022-10-16T09:54:47Z</time>
      </trkpt>
      <trkpt lat="44.22676" lon="6.65179">
        <ele>1967.1</ele>
        <time>2022-10-16T09:54:53Z</time>
      </trkpt>
      <trkpt lat="44.22688" lon="6.65176">
        <ele>1964</ele>
        <time>2022-10-16T09:55:12Z</time>
      </trkpt>
      <trkpt lat="44.22697" lon="6.65176">
        <ele>1960.5</ele>
        <time>2022-10-16T09:55:30Z</time>
      </trkpt>
      <trkpt lat="44.22706" lon="6.65175">
        <ele>1958.9</ele>
        <time>2022-10-16T09:55:42Z</time>
      </trkpt>
      <trkpt lat="44.22715" lon="6.65173">
        <ele>1956.2</ele>
        <time>2022-10-16T09:55:58Z</time>
      </trkpt>
      <trkpt lat="44.22725" lon="6.65174">
        <ele>1953.3</ele>
        <time>2022-10-16T09:56:14Z</time>
      </trkpt>
      <trkpt lat="44.22734" lon="6.65169">
        <ele>1950.3</ele>
        <time>2022-10-16T09:56:28Z</time>
      </trkpt>
      <trkpt lat="44.22743" lon="6.65168">
        <ele>1944.4</ele>
        <time>2022-10-16T09:56:59Z</time>
      </trkpt>
      <trkpt lat="44.22753" lon="6.65168">
        <ele>1941.6</ele>
        <time>2022-10-16T09:57:14Z</time>
      </trkpt>
      <trkpt lat="44.22761" lon="6.65164">
        <ele>1939.4</ele>
        <time>2022-10-16T09:57:24Z</time>
      </trkpt>
      <trkpt lat="44.2277" lon="6.65158">
        <ele>1935</ele>
        <time>2022-10-16T09:57:44Z</time>
      </trkpt>
      <trkpt lat="44.22778" lon="6.65153">
        <ele>1932.6</ele>
        <time>2022-10-16T09:57:54Z</time>
      </trkpt>
      <trkpt lat="44.22784" lon="6.65144">
        <ele>1930.8</ele>
        <time>2022-10-16T09:58:02Z</time>
      </trkpt>
      <trkpt lat="44.22793" lon="6.65145">
        <ele>1924.3</ele>
        <time>2022-10-16T09:58:41Z</time>
      </trkpt>
      <trkpt lat="44.22803" lon="6.65141">
        <ele>1922.2</ele>
        <time>2022-10-16T09:58:55Z</time>
      </trkpt>
      <trkpt lat="44.2281" lon="6.65133">
        <ele>1921.3</ele>
        <time>2022-10-16T09:59:10Z</time>
      </trkpt>
      <trkpt lat="44.22819" lon="6.65128">
        <ele>1920.6</ele>
        <time>2022-10-16T09:59:21Z</time>
      </trkpt>
      <trkpt lat="44.22827" lon="6.65119">
        <ele>1918.8</ele>
        <time>2022-10-16T09:59:31Z</time>
      </trkpt>
      <trkpt lat="44.22835" lon="6.65114">
        <ele>1914.8</ele>
        <time>2022-10-16T09:59:49Z</time>
      </trkpt>
      <trkpt lat="44.22842" lon="6.65104">
        <ele>1910.4</ele>
        <time>2022-10-16T10:00:10Z</time>
      </trkpt>
      <trkpt lat="44.22849" lon="6.65097">
        <ele>1909.1</ele>
        <time>2022-10-16T10:00:18Z</time>
      </trkpt>
      <trkpt lat="44.22856" lon="6.65088">
        <ele>1905.9</ele>
        <time>2022-10-16T10:00:33Z</time>
      </trkpt>
      <trkpt lat="44.22866" lon="6.6508">
        <ele>1903.7</ele>
        <time>2022-10-16T10:00:43Z</time>
      </trkpt>
      <trkpt lat="44.22873" lon="6.65071">
        <ele>1902</ele>
        <time>2022-10-16T10:00:51Z</time>
      </trkpt>
      <trkpt lat="44.22877" lon="6.65059">
        <ele>1900.7</ele>
        <time>2022-10-16T10:01:00Z</time>
      </trkpt>
      <trkpt lat="44.22885" lon="6.6505">
        <ele>1898.4</ele>
        <time>2022-10-16T10:01:14Z</time>
      </trkpt>
      <trkpt lat="44.22892" lon="6.65041">
        <ele>1897</ele>
        <time>2022-10-16T10:01:23Z</time>
      </trkpt>
      <trkpt lat="44.22892" lon="6.65028">
        <ele>1895.5</ele>
        <time>2022-10-16T10:01:34Z</time>
      </trkpt>
      <trkpt lat="44.22897" lon="6.65018">
        <ele>1893.7</ele>
        <time>2022-10-16T10:01:46Z</time>
      </trkpt>
      <trkpt lat="44.22906" lon="6.65014">
        <ele>1892.6</ele>
        <time>2022-10-16T10:02:00Z</time>
      </trkpt>
      <trkpt lat="44.22914" lon="6.65007">
        <ele>1891.4</ele>
        <time>2022-10-16T10:02:07Z</time>
      </trkpt>
      <trkpt lat="44.22922" lon="6.65">
        <ele>1889.8</ele>
        <time>2022-10-16T10:02:17Z</time>
      </trkpt>
      <trkpt lat="44.2293" lon="6.64993">
        <ele>1887.6</ele>
        <time>2022-10-16T10:02:29Z</time>
      </trkpt>
      <trkpt lat="44.22938" lon="6.64983">
        <ele>1886.1</ele>
        <time>2022-10-16T10:02:39Z</time>
      </trkpt>
      <trkpt lat="44.22939" lon="6.64971">
        <ele>1884.5</ele>
        <time>2022-10-16T10:02:48Z</time>
      </trkpt>
      <trkpt lat="44.22944" lon="6.6496">
        <ele>1882.8</ele>
        <time>2022-10-16T10:02:58Z</time>
      </trkpt>
      <trkpt lat="44.22945" lon="6.64947">
        <ele>1881.2</ele>
        <time>2022-10-16T10:03:10Z</time>
      </trkpt>
      <trkpt lat="44.22949" lon="6.64935">
        <ele>1878.7</ele>
        <time>2022-10-16T10:03:23Z</time>
      </trkpt>
      <trkpt lat="44.22953" lon="6.64924">
        <ele>1876.9</ele>
        <time>2022-10-16T10:03:35Z</time>
      </trkpt>
      <trkpt lat="44.22963" lon="6.64923">
        <ele>1875.3</ele>
        <time>2022-10-16T10:04:05Z</time>
      </trkpt>
      <trkpt lat="44.22972" lon="6.64928">
        <ele>1875</ele>
        <time>2022-10-16T10:04:20Z</time>
      </trkpt>
      <trkpt lat="44.22965" lon="6.64919">
        <ele>1874.8</ele>
        <time>2022-10-16T10:04:37Z</time>
      </trkpt>
      <trkpt lat="44.22956" lon="6.64915">
        <ele>1875.1</ele>
        <time>2022-10-16T10:04:48Z</time>
      </trkpt>
      <trkpt lat="44.22947" lon="6.64912">
        <ele>1875.3</ele>
        <time>2022-10-16T10:04:59Z</time>
      </trkpt>
      <trkpt lat="44.2294" lon="6.64903">
        <ele>1875.3</ele>
        <time>2022-10-16T10:06:06Z</time>
      </trkpt>
      <trkpt lat="44.2293" lon="6.649">
        <ele>1874.7</ele>
        <time>2022-10-16T10:06:50Z</time>
      </trkpt>
      <trkpt lat="44.22922" lon="6.64895">
        <ele>1874.7</ele>
        <time>2022-10-16T10:06:59Z</time>
      </trkpt>
      <trkpt lat="44.22914" lon="6.64888">
        <ele>1874.6</ele>
        <time>2022-10-16T10:07:06Z</time>
      </trkpt>
      <trkpt lat="44.22906" lon="6.6488">
        <ele>1874.4</ele>
        <time>2022-10-16T10:07:14Z</time>
      </trkpt>
      <trkpt lat="44.22901" lon="6.64868">
        <ele>1874.4</ele>
        <time>2022-10-16T10:07:23Z</time>
      </trkpt>
      <trkpt lat="44.22895" lon="6.64859">
        <ele>1874.5</ele>
        <time>2022-10-16T10:07:30Z</time>
      </trkpt>
      <trkpt lat="44.22887" lon="6.64852">
        <ele>1874.3</ele>
        <time>2022-10-16T10:07:37Z</time>
      </trkpt>
      <trkpt lat="44.2288" lon="6.64844">
        <ele>1873.9</ele>
        <time>2022-10-16T10:07:45Z</time>
      </trkpt>
      <trkpt lat="44.22871" lon="6.64836">
        <ele>1873.6</ele>
        <time>2022-10-16T10:07:53Z</time>
      </trkpt>
      <trkpt lat="44.22863" lon="6.64828">
        <ele>1873.7</ele>
        <time>2022-10-16T10:08:01Z</time>
      </trkpt>
      <trkpt lat="44.22856" lon="6.6482">
        <ele>1874.1</ele>
        <time>2022-10-16T10:08:09Z</time>
      </trkpt>
      <trkpt lat="44.22848" lon="6.64811">
        <ele>1874.3</ele>
        <time>2022-10-16T10:08:17Z</time>
      </trkpt>
      <trkpt lat="44.2284" lon="6.64803">
        <ele>1874.3</ele>
        <time>2022-10-16T10:08:24Z</time>
      </trkpt>
      <trkpt lat="44.22832" lon="6.64796">
        <ele>1874.5</ele>
        <time>2022-10-16T10:08:32Z</time>
      </trkpt>
      <trkpt lat="44.22824" lon="6.64788">
        <ele>1874.6</ele>
        <time>2022-10-16T10:08:40Z</time>
      </trkpt>
      <trkpt lat="44.22817" lon="6.64778">
        <ele>1874.7</ele>
        <time>2022-10-16T10:08:48Z</time>
      </trkpt>
      <trkpt lat="44.22811" lon="6.64767">
        <ele>1875.6</ele>
        <time>2022-10-16T10:08:57Z</time>
      </trkpt>
      <trkpt lat="44.22804" lon="6.64759">
        <ele>1876</ele>
        <time>2022-10-16T10:09:07Z</time>
      </trkpt>
      <trkpt lat="44.22797" lon="6.64748">
        <ele>1876</ele>
        <time>2022-10-16T10:09:16Z</time>
      </trkpt>
      <trkpt lat="44.22788" lon="6.6474">
        <ele>1876.4</ele>
        <time>2022-10-16T10:09:24Z</time>
      </trkpt>
      <trkpt lat="44.2278" lon="6.64731">
        <ele>1876.6</ele>
        <time>2022-10-16T10:09:33Z</time>
      </trkpt>
      <trkpt lat="44.22774" lon="6.64721">
        <ele>1877.1</ele>
        <time>2022-10-16T10:09:40Z</time>
      </trkpt>
      <trkpt lat="44.22767" lon="6.64712">
        <ele>1877.1</ele>
        <time>2022-10-16T10:09:51Z</time>
      </trkpt>
      <trkpt lat="44.22759" lon="6.64705">
        <ele>1876.8</ele>
        <time>2022-10-16T10:09:58Z</time>
      </trkpt>
      <trkpt lat="44.2275" lon="6.64702">
        <ele>1876.8</ele>
        <time>2022-10-16T10:10:06Z</time>
      </trkpt>
      <trkpt lat="44.22741" lon="6.64698">
        <ele>1876.3</ele>
        <time>2022-10-16T10:10:13Z</time>
      </trkpt>
      <trkpt lat="44.22732" lon="6.64691">
        <ele>1876.1</ele>
        <time>2022-10-16T10:10:20Z</time>
      </trkpt>
      <trkpt lat="44.22723" lon="6.64686">
        <ele>1875.7</ele>
        <time>2022-10-16T10:10:27Z</time>
      </trkpt>
      <trkpt lat="44.22714" lon="6.64681">
        <ele>1875.6</ele>
        <time>2022-10-16T10:10:54Z</time>
      </trkpt>
      <trkpt lat="44.22706" lon="6.64676">
        <ele>1875.8</ele>
        <time>2022-10-16T10:11:35Z</time>
      </trkpt>
      <trkpt lat="44.22698" lon="6.6467">
        <ele>1875.5</ele>
        <time>2022-10-16T10:12:05Z</time>
      </trkpt>
      <trkpt lat="44.2269" lon="6.64664">
        <ele>1875.4</ele>
        <time>2022-10-16T10:12:14Z</time>
      </trkpt>
      <trkpt lat="44.22681" lon="6.64658">
        <ele>1875.2</ele>
        <time>2022-10-16T10:12:24Z</time>
      </trkpt>
      <trkpt lat="44.22673" lon="6.64652">
        <ele>1874.8</ele>
        <time>2022-10-16T10:12:32Z</time>
      </trkpt>
      <trkpt lat="44.22665" lon="6.64644">
        <ele>1874.3</ele>
        <time>2022-10-16T10:12:44Z</time>
      </trkpt>
      <trkpt lat="44.22663" lon="6.64632">
        <ele>1874.5</ele>
        <time>2022-10-16T10:13:02Z</time>
      </trkpt>
      <trkpt lat="44.22654" lon="6.6463">
        <ele>1874.6</ele>
        <time>2022-10-16T10:13:11Z</time>
      </trkpt>
      <trkpt lat="44.2265" lon="6.64642">
        <ele>1875.2</ele>
        <time>2022-10-16T10:13:47Z</time>
      </trkpt>
      <trkpt lat="44.22655" lon="6.64653">
        <ele>1874.9</ele>
        <time>2022-10-16T10:14:41Z</time>
      </trkpt>
      <trkpt lat="44.22647" lon="6.64655">
        <ele>1875.1</ele>
        <time>2022-10-16T10:15:00Z</time>
      </trkpt>
      <trkpt lat="44.22638" lon="6.64656">
        <ele>1875.6</ele>
        <time>2022-10-16T10:19:23Z</time>
      </trkpt>
      <trkpt lat="44.2263" lon="6.64662">
        <ele>1875.4</ele>
        <time>2022-10-16T10:20:32Z</time>
      </trkpt>
      <trkpt lat="44.22636" lon="6.64654">
        <ele>1875.9</ele>
        <time>2022-10-16T10:22:13Z</time>
      </trkpt>
      <trkpt lat="44.22629" lon="6.64646">
        <ele>1875.6</ele>
        <time>2022-10-16T10:28:25Z</time>
      </trkpt>
      <trkpt lat="44.22638" lon="6.64647">
        <ele>1875.1</ele>
        <time>2022-10-16T10:28:56Z</time>
      </trkpt>
      <trkpt lat="44.22647" lon="6.64653">
        <ele>1875.6</ele>
        <time>2022-10-16T10:29:47Z</time>
      </trkpt>
      <trkpt lat="44.22643" lon="6.64641">
        <ele>1875.9</ele>
        <time>2022-10-16T10:30:44Z</time>
      </trkpt>
      <trkpt lat="44.22634" lon="6.64643">
        <ele>1876.1</ele>
        <time>2022-10-16T10:31:43Z</time>
      </trkpt>
      <trkpt lat="44.22643" lon="6.64647">
        <ele>1876.3</ele>
        <time>2022-10-16T10:33:02Z</time>
      </trkpt>
      <trkpt lat="44.22652" lon="6.64646">
        <ele>1875.8</ele>
        <time>2022-10-16T10:37:14Z</time>
      </trkpt>
      <trkpt lat="44.22656" lon="6.64658">
        <ele>1876.3</ele>
        <time>2022-10-16T10:38:52Z</time>
      </trkpt>
      <trkpt lat="44.2265" lon="6.64648">
        <ele>1876.2</ele>
        <time>2022-10-16T10:40:45Z</time>
      </trkpt>
      <trkpt lat="44.22641" lon="6.64645">
        <ele>1876.2</ele>
        <time>2022-10-16T10:42:50Z</time>
      </trkpt>
      <trkpt lat="44.2265" lon="6.64645">
        <ele>1875.9</ele>
        <time>2022-10-16T10:43:20Z</time>
      </trkpt>
      <trkpt lat="44.22652" lon="6.64633">
        <ele>1876.1</ele>
        <time>2022-10-16T10:45:11Z</time>
      </trkpt>
      <trkpt lat="44.22645" lon="6.6464">
        <ele>1875.6</ele>
        <time>2022-10-16T10:45:50Z</time>
      </trkpt>
      <trkpt lat="44.22653" lon="6.64632">
        <ele>1876.2</ele>
        <time>2022-10-16T10:47:21Z</time>
      </trkpt>
      <trkpt lat="44.22652" lon="6.6462">
        <ele>1875.9</ele>
        <time>2022-10-16T10:47:59Z</time>
      </trkpt>
      <trkpt lat="44.22643" lon="6.64622">
        <ele>1875.7</ele>
        <time>2022-10-16T10:48:17Z</time>
      </trkpt>
      <trkpt lat="44.22634" lon="6.64624">
        <ele>1875.6</ele>
        <time>2022-10-16T10:55:47Z</time>
      </trkpt>
      <trkpt lat="44.22625" lon="6.6462">
        <ele>1875.7</ele>
        <time>2022-10-16T10:56:00Z</time>
      </trkpt>
      <trkpt lat="44.22616" lon="6.64616">
        <ele>1875</ele>
        <time>2022-10-16T10:56:14Z</time>
      </trkpt>
      <trkpt lat="44.22606" lon="6.64614">
        <ele>1874.4</ele>
        <time>2022-10-16T10:56:26Z</time>
      </trkpt>
      <trkpt lat="44.22597" lon="6.64612">
        <ele>1873.1</ele>
        <time>2022-10-16T10:56:37Z</time>
      </trkpt>
      <trkpt lat="44.22587" lon="6.64611">
        <ele>1872.5</ele>
        <time>2022-10-16T10:56:46Z</time>
      </trkpt>
      <trkpt lat="44.22577" lon="6.6461">
        <ele>1871.7</ele>
        <time>2022-10-16T10:56:55Z</time>
      </trkpt>
      <trkpt lat="44.22568" lon="6.64612">
        <ele>1870.8</ele>
        <time>2022-10-16T10:57:04Z</time>
      </trkpt>
      <trkpt lat="44.22559" lon="6.64613">
        <ele>1870.1</ele>
        <time>2022-10-16T10:57:24Z</time>
      </trkpt>
      <trkpt lat="44.22549" lon="6.6461">
        <ele>1869</ele>
        <time>2022-10-16T10:57:36Z</time>
      </trkpt>
      <trkpt lat="44.2254" lon="6.64601">
        <ele>1867.9</ele>
        <time>2022-10-16T10:57:49Z</time>
      </trkpt>
      <trkpt lat="44.22533" lon="6.64594">
        <ele>1867.1</ele>
        <time>2022-10-16T10:58:01Z</time>
      </trkpt>
      <trkpt lat="44.22526" lon="6.64584">
        <ele>1865.8</ele>
        <time>2022-10-16T10:58:12Z</time>
      </trkpt>
      <trkpt lat="44.22517" lon="6.64579">
        <ele>1865.1</ele>
        <time>2022-10-16T10:58:23Z</time>
      </trkpt>
      <trkpt lat="44.22508" lon="6.64575">
        <ele>1864.3</ele>
        <time>2022-10-16T10:58:32Z</time>
      </trkpt>
      <trkpt lat="44.22499" lon="6.64573">
        <ele>1863.5</ele>
        <time>2022-10-16T10:58:39Z</time>
      </trkpt>
      <trkpt lat="44.22488" lon="6.64572">
        <ele>1862.8</ele>
        <time>2022-10-16T10:58:47Z</time>
      </trkpt>
      <trkpt lat="44.22479" lon="6.64572">
        <ele>1862</ele>
        <time>2022-10-16T10:58:55Z</time>
      </trkpt>
      <trkpt lat="44.22469" lon="6.64572">
        <ele>1861.2</ele>
        <time>2022-10-16T10:59:02Z</time>
      </trkpt>
      <trkpt lat="44.2246" lon="6.64567">
        <ele>1860</ele>
        <time>2022-10-16T10:59:15Z</time>
      </trkpt>
      <trkpt lat="44.22451" lon="6.64563">
        <ele>1859.2</ele>
        <time>2022-10-16T10:59:23Z</time>
      </trkpt>
      <trkpt lat="44.22443" lon="6.64555">
        <ele>1858</ele>
        <time>2022-10-16T10:59:34Z</time>
      </trkpt>
      <trkpt lat="44.22435" lon="6.64548">
        <ele>1856.8</ele>
        <time>2022-10-16T10:59:43Z</time>
      </trkpt>
      <trkpt lat="44.22426" lon="6.64544">
        <ele>1855.8</ele>
        <time>2022-10-16T10:59:51Z</time>
      </trkpt>
      <trkpt lat="44.22417" lon="6.6454">
        <ele>1855</ele>
        <time>2022-10-16T10:59:57Z</time>
      </trkpt>
      <trkpt lat="44.22407" lon="6.64538">
        <ele>1853.8</ele>
        <time>2022-10-16T11:00:05Z</time>
      </trkpt>
      <trkpt lat="44.22398" lon="6.64537">
        <ele>1853.3</ele>
        <time>2022-10-16T11:00:13Z</time>
      </trkpt>
      <trkpt lat="44.22388" lon="6.64536">
        <ele>1852.3</ele>
        <time>2022-10-16T11:00:21Z</time>
      </trkpt>
      <trkpt lat="44.22379" lon="6.64535">
        <ele>1851.1</ele>
        <time>2022-10-16T11:00:29Z</time>
      </trkpt>
      <trkpt lat="44.22369" lon="6.64532">
        <ele>1850.2</ele>
        <time>2022-10-16T11:00:36Z</time>
      </trkpt>
      <trkpt lat="44.2236" lon="6.64533">
        <ele>1849.4</ele>
        <time>2022-10-16T11:00:45Z</time>
      </trkpt>
      <trkpt lat="44.22352" lon="6.64542">
        <ele>1850.7</ele>
        <time>2022-10-16T11:00:57Z</time>
      </trkpt>
      <trkpt lat="44.22343" lon="6.64547">
        <ele>1851.1</ele>
        <time>2022-10-16T11:01:08Z</time>
      </trkpt>
      <trkpt lat="44.22335" lon="6.64553">
        <ele>1850.8</ele>
        <time>2022-10-16T11:01:41Z</time>
      </trkpt>
      <trkpt lat="44.22327" lon="6.64558">
        <ele>1850.2</ele>
        <time>2022-10-16T11:01:51Z</time>
      </trkpt>
      <trkpt lat="44.22319" lon="6.64564">
        <ele>1849.7</ele>
        <time>2022-10-16T11:02:04Z</time>
      </trkpt>
      <trkpt lat="44.22309" lon="6.64566">
        <ele>1848.6</ele>
        <time>2022-10-16T11:02:14Z</time>
      </trkpt>
      <trkpt lat="44.22302" lon="6.64558">
        <ele>1847.4</ele>
        <time>2022-10-16T11:02:25Z</time>
      </trkpt>
      <trkpt lat="44.22294" lon="6.64552">
        <ele>1845.6</ele>
        <time>2022-10-16T11:02:36Z</time>
      </trkpt>
      <trkpt lat="44.22287" lon="6.64542">
        <ele>1844.6</ele>
        <time>2022-10-16T11:02:45Z</time>
      </trkpt>
      <trkpt lat="44.22287" lon="6.64529">
        <ele>1843.6</ele>
        <time>2022-10-16T11:02:55Z</time>
      </trkpt>
      <trkpt lat="44.22292" lon="6.64517">
        <ele>1842.7</ele>
        <time>2022-10-16T11:03:26Z</time>
      </trkpt>
      <trkpt lat="44.22298" lon="6.64507">
        <ele>1842.2</ele>
        <time>2022-10-16T11:03:43Z</time>
      </trkpt>
      <trkpt lat="44.22308" lon="6.64504">
        <ele>1841.9</ele>
        <time>2022-10-16T11:03:54Z</time>
      </trkpt>
      <trkpt lat="44.22317" lon="6.64498">
        <ele>1841.2</ele>
        <time>2022-10-16T11:04:03Z</time>
      </trkpt>
      <trkpt lat="44.22325" lon="6.64492">
        <ele>1840.7</ele>
        <time>2022-10-16T11:04:12Z</time>
      </trkpt>
      <trkpt lat="44.22334" lon="6.64486">
        <ele>1840</ele>
        <time>2022-10-16T11:04:22Z</time>
      </trkpt>
      <trkpt lat="44.22343" lon="6.64482">
        <ele>1839.6</ele>
        <time>2022-10-16T11:04:32Z</time>
      </trkpt>
      <trkpt lat="44.22353" lon="6.64479">
        <ele>1838.7</ele>
        <time>2022-10-16T11:04:42Z</time>
      </trkpt>
      <trkpt lat="44.22361" lon="6.64474">
        <ele>1838.1</ele>
        <time>2022-10-16T11:04:52Z</time>
      </trkpt>
      <trkpt lat="44.22371" lon="6.64472">
        <ele>1837.2</ele>
        <time>2022-10-16T11:05:02Z</time>
      </trkpt>
      <trkpt lat="44.22379" lon="6.64467">
        <ele>1836.7</ele>
        <time>2022-10-16T11:05:12Z</time>
      </trkpt>
      <trkpt lat="44.22388" lon="6.64463">
        <ele>1835.8</ele>
        <time>2022-10-16T11:05:22Z</time>
      </trkpt>
      <trkpt lat="44.22397" lon="6.64459">
        <ele>1835.2</ele>
        <time>2022-10-16T11:05:32Z</time>
      </trkpt>
      <trkpt lat="44.22405" lon="6.64453">
        <ele>1834.1</ele>
        <time>2022-10-16T11:05:43Z</time>
      </trkpt>
      <trkpt lat="44.22414" lon="6.64447">
        <ele>1832.9</ele>
        <time>2022-10-16T11:05:54Z</time>
      </trkpt>
      <trkpt lat="44.22422" lon="6.6444">
        <ele>1832</ele>
        <time>2022-10-16T11:06:02Z</time>
      </trkpt>
      <trkpt lat="44.22429" lon="6.64432">
        <ele>1831.4</ele>
        <time>2022-10-16T11:06:17Z</time>
      </trkpt>
      <trkpt lat="44.22436" lon="6.64423">
        <ele>1830.6</ele>
        <time>2022-10-16T11:06:26Z</time>
      </trkpt>
      <trkpt lat="44.22443" lon="6.64415">
        <ele>1830.1</ele>
        <time>2022-10-16T11:06:35Z</time>
      </trkpt>
      <trkpt lat="44.22452" lon="6.6441">
        <ele>1829.4</ele>
        <time>2022-10-16T11:06:48Z</time>
      </trkpt>
      <trkpt lat="44.22461" lon="6.64412">
        <ele>1828</ele>
        <time>2022-10-16T11:06:59Z</time>
      </trkpt>
      <trkpt lat="44.2247" lon="6.64409">
        <ele>1827.1</ele>
        <time>2022-10-16T11:07:11Z</time>
      </trkpt>
      <trkpt lat="44.2248" lon="6.64407">
        <ele>1826</ele>
        <time>2022-10-16T11:07:23Z</time>
      </trkpt>
      <trkpt lat="44.22489" lon="6.64411">
        <ele>1824.7</ele>
        <time>2022-10-16T11:07:33Z</time>
      </trkpt>
      <trkpt lat="44.22497" lon="6.64416">
        <ele>1823.8</ele>
        <time>2022-10-16T11:07:42Z</time>
      </trkpt>
      <trkpt lat="44.22505" lon="6.64423">
        <ele>1822.9</ele>
        <time>2022-10-16T11:07:50Z</time>
      </trkpt>
      <trkpt lat="44.22515" lon="6.64426">
        <ele>1822.3</ele>
        <time>2022-10-16T11:07:59Z</time>
      </trkpt>
      <trkpt lat="44.22523" lon="6.64431">
        <ele>1821.5</ele>
        <time>2022-10-16T11:08:07Z</time>
      </trkpt>
      <trkpt lat="44.22533" lon="6.64434">
        <ele>1821</ele>
        <time>2022-10-16T11:08:18Z</time>
      </trkpt>
      <trkpt lat="44.22542" lon="6.64434">
        <ele>1819.8</ele>
        <time>2022-10-16T11:08:29Z</time>
      </trkpt>
      <trkpt lat="44.22552" lon="6.64432">
        <ele>1818.2</ele>
        <time>2022-10-16T11:08:39Z</time>
      </trkpt>
      <trkpt lat="44.22562" lon="6.64431">
        <ele>1817.4</ele>
        <time>2022-10-16T11:08:48Z</time>
      </trkpt>
      <trkpt lat="44.22571" lon="6.64435">
        <ele>1816.7</ele>
        <time>2022-10-16T11:08:57Z</time>
      </trkpt>
      <trkpt lat="44.22579" lon="6.6444">
        <ele>1816.4</ele>
        <time>2022-10-16T11:09:05Z</time>
      </trkpt>
      <trkpt lat="44.22588" lon="6.64444">
        <ele>1815.7</ele>
        <time>2022-10-16T11:09:14Z</time>
      </trkpt>
      <trkpt lat="44.22597" lon="6.64445">
        <ele>1815.3</ele>
        <time>2022-10-16T11:09:23Z</time>
      </trkpt>
      <trkpt lat="44.22606" lon="6.6445">
        <ele>1814.7</ele>
        <time>2022-10-16T11:09:32Z</time>
      </trkpt>
      <trkpt lat="44.22614" lon="6.64456">
        <ele>1813.8</ele>
        <time>2022-10-16T11:09:41Z</time>
      </trkpt>
      <trkpt lat="44.22621" lon="6.64464">
        <ele>1813.2</ele>
        <time>2022-10-16T11:09:50Z</time>
      </trkpt>
      <trkpt lat="44.22631" lon="6.64464">
        <ele>1812.6</ele>
        <time>2022-10-16T11:10:02Z</time>
      </trkpt>
      <trkpt lat="44.22636" lon="6.64452">
        <ele>1811.8</ele>
        <time>2022-10-16T11:10:08Z</time>
      </trkpt>
      <trkpt lat="44.22634" lon="6.64439">
        <ele>1810.2</ele>
        <time>2022-10-16T11:10:19Z</time>
      </trkpt>
      <trkpt lat="44.22627" lon="6.6443">
        <ele>1808.9</ele>
        <time>2022-10-16T11:10:31Z</time>
      </trkpt>
      <trkpt lat="44.22625" lon="6.64417">
        <ele>1808.2</ele>
        <time>2022-10-16T11:10:42Z</time>
      </trkpt>
      <trkpt lat="44.2262" lon="6.64406">
        <ele>1807.6</ele>
        <time>2022-10-16T11:10:51Z</time>
      </trkpt>
      <trkpt lat="44.22615" lon="6.64395">
        <ele>1806.9</ele>
        <time>2022-10-16T11:11:00Z</time>
      </trkpt>
      <trkpt lat="44.22613" lon="6.64382">
        <ele>1805.7</ele>
        <time>2022-10-16T11:11:10Z</time>
      </trkpt>
      <trkpt lat="44.22609" lon="6.6437">
        <ele>1804.7</ele>
        <time>2022-10-16T11:11:20Z</time>
      </trkpt>
      <trkpt lat="44.22602" lon="6.64362">
        <ele>1804</ele>
        <time>2022-10-16T11:11:27Z</time>
      </trkpt>
      <trkpt lat="44.22596" lon="6.64351">
        <ele>1803.2</ele>
        <time>2022-10-16T11:11:37Z</time>
      </trkpt>
      <trkpt lat="44.22605" lon="6.64358">
        <ele>1798.8</ele>
        <time>2022-10-16T11:12:41Z</time>
      </trkpt>
      <trkpt lat="44.22614" lon="6.64356">
        <ele>1797.7</ele>
        <time>2022-10-16T11:12:51Z</time>
      </trkpt>
      <trkpt lat="44.22624" lon="6.64357">
        <ele>1795.8</ele>
        <time>2022-10-16T11:13:14Z</time>
      </trkpt>
      <trkpt lat="44.22632" lon="6.64361">
        <ele>1794.5</ele>
        <time>2022-10-16T11:13:26Z</time>
      </trkpt>
      <trkpt lat="44.22641" lon="6.64361">
        <ele>1793.5</ele>
        <time>2022-10-16T11:13:36Z</time>
      </trkpt>
      <trkpt lat="44.2265" lon="6.64365">
        <ele>1792.4</ele>
        <time>2022-10-16T11:14:03Z</time>
      </trkpt>
      <trkpt lat="44.2266" lon="6.64366">
        <ele>1791</ele>
        <time>2022-10-16T11:14:15Z</time>
      </trkpt>
      <trkpt lat="44.22669" lon="6.64368">
        <ele>1789.6</ele>
        <time>2022-10-16T11:14:25Z</time>
      </trkpt>
      <trkpt lat="44.22678" lon="6.64372">
        <ele>1788.8</ele>
        <time>2022-10-16T11:14:37Z</time>
      </trkpt>
      <trkpt lat="44.22686" lon="6.64381">
        <ele>1789.1</ele>
        <time>2022-10-16T11:14:46Z</time>
      </trkpt>
      <trkpt lat="44.22694" lon="6.64387">
        <ele>1789.2</ele>
        <time>2022-10-16T11:14:54Z</time>
      </trkpt>
      <trkpt lat="44.22702" lon="6.64394">
        <ele>1790.3</ele>
        <time>2022-10-16T11:15:05Z</time>
      </trkpt>
      <trkpt lat="44.22711" lon="6.64399">
        <ele>1793</ele>
        <time>2022-10-16T11:15:30Z</time>
      </trkpt>
      <trkpt lat="44.2272" lon="6.64405">
        <ele>1795.1</ele>
        <time>2022-10-16T11:15:43Z</time>
      </trkpt>
      <trkpt lat="44.22729" lon="6.64402">
        <ele>1796.6</ele>
        <time>2022-10-16T11:15:54Z</time>
      </trkpt>
      <trkpt lat="44.22739" lon="6.64401">
        <ele>1797.2</ele>
        <time>2022-10-16T11:16:04Z</time>
      </trkpt>
      <trkpt lat="44.22748" lon="6.64396">
        <ele>1797</ele>
        <time>2022-10-16T11:16:16Z</time>
      </trkpt>
      <trkpt lat="44.22758" lon="6.64394">
        <ele>1796.2</ele>
        <time>2022-10-16T11:16:29Z</time>
      </trkpt>
      <trkpt lat="44.22764" lon="6.64383">
        <ele>1795.5</ele>
        <time>2022-10-16T11:16:38Z</time>
      </trkpt>
      <trkpt lat="44.22768" lon="6.64373">
        <ele>1793.3</ele>
        <time>2022-10-16T11:16:51Z</time>
      </trkpt>
      <trkpt lat="44.22776" lon="6.64364">
        <ele>1791.2</ele>
        <time>2022-10-16T11:17:02Z</time>
      </trkpt>
      <trkpt lat="44.22781" lon="6.64353">
        <ele>1789.2</ele>
        <time>2022-10-16T11:17:15Z</time>
      </trkpt>
      <trkpt lat="44.22791" lon="6.64354">
        <ele>1788.1</ele>
        <time>2022-10-16T11:17:28Z</time>
      </trkpt>
      <trkpt lat="44.22799" lon="6.64359">
        <ele>1787.5</ele>
        <time>2022-10-16T11:17:45Z</time>
      </trkpt>
      <trkpt lat="44.22809" lon="6.64363">
        <ele>1789</ele>
        <time>2022-10-16T11:17:58Z</time>
      </trkpt>
      <trkpt lat="44.22817" lon="6.64369">
        <ele>1789.1</ele>
        <time>2022-10-16T11:18:05Z</time>
      </trkpt>
      <trkpt lat="44.22826" lon="6.64374">
        <ele>1789.3</ele>
        <time>2022-10-16T11:18:16Z</time>
      </trkpt>
      <trkpt lat="44.22835" lon="6.64377">
        <ele>1789.3</ele>
        <time>2022-10-16T11:18:28Z</time>
      </trkpt>
      <trkpt lat="44.22844" lon="6.64381">
        <ele>1789.9</ele>
        <time>2022-10-16T11:18:40Z</time>
      </trkpt>
      <trkpt lat="44.22852" lon="6.64388">
        <ele>1789.8</ele>
        <time>2022-10-16T11:18:50Z</time>
      </trkpt>
      <trkpt lat="44.22861" lon="6.64389">
        <ele>1789.5</ele>
        <time>2022-10-16T11:18:59Z</time>
      </trkpt>
      <trkpt lat="44.22871" lon="6.64389">
        <ele>1789.4</ele>
        <time>2022-10-16T11:19:11Z</time>
      </trkpt>
      <trkpt lat="44.22879" lon="6.64393">
        <ele>1789.3</ele>
        <time>2022-10-16T11:19:21Z</time>
      </trkpt>
      <trkpt lat="44.22889" lon="6.64395">
        <ele>1789.2</ele>
        <time>2022-10-16T11:19:35Z</time>
      </trkpt>
      <trkpt lat="44.22897" lon="6.64402">
        <ele>1790.4</ele>
        <time>2022-10-16T11:19:51Z</time>
      </trkpt>
      <trkpt lat="44.22906" lon="6.64402">
        <ele>1792.6</ele>
        <time>2022-10-16T11:20:04Z</time>
      </trkpt>
      <trkpt lat="44.22915" lon="6.64401">
        <ele>1793.8</ele>
        <time>2022-10-16T11:20:17Z</time>
      </trkpt>
      <trkpt lat="44.22925" lon="6.64401">
        <ele>1794</ele>
        <time>2022-10-16T11:20:43Z</time>
      </trkpt>
      <trkpt lat="44.22924" lon="6.64388">
        <ele>1793</ele>
        <time>2022-10-16T11:22:58Z</time>
      </trkpt>
      <trkpt lat="44.22932" lon="6.64394">
        <ele>1793.3</ele>
        <time>2022-10-16T11:24:16Z</time>
      </trkpt>
      <trkpt lat="44.22941" lon="6.64394">
        <ele>1792.9</ele>
        <time>2022-10-16T11:24:30Z</time>
      </trkpt>
      <trkpt lat="44.22947" lon="6.64385">
        <ele>1791.7</ele>
        <time>2022-10-16T11:24:46Z</time>
      </trkpt>
      <trkpt lat="44.22956" lon="6.64381">
        <ele>1789</ele>
        <time>2022-10-16T11:25:05Z</time>
      </trkpt>
      <trkpt lat="44.22965" lon="6.64377">
        <ele>1787.7</ele>
        <time>2022-10-16T11:25:18Z</time>
      </trkpt>
      <trkpt lat="44.22973" lon="6.64371">
        <ele>1786.9</ele>
        <time>2022-10-16T11:25:30Z</time>
      </trkpt>
      <trkpt lat="44.22982" lon="6.64363">
        <ele>1786.5</ele>
        <time>2022-10-16T11:25:40Z</time>
      </trkpt>
      <trkpt lat="44.22987" lon="6.64352">
        <ele>1785.9</ele>
        <time>2022-10-16T11:25:46Z</time>
      </trkpt>
      <trkpt lat="44.22991" lon="6.6434">
        <ele>1784.7</ele>
        <time>2022-10-16T11:25:55Z</time>
      </trkpt>
      <trkpt lat="44.23" lon="6.64339">
        <ele>1786.2</ele>
        <time>2022-10-16T11:31:58Z</time>
      </trkpt>
      <trkpt lat="44.23009" lon="6.64341">
        <ele>1786.7</ele>
        <time>2022-10-16T11:32:14Z</time>
      </trkpt>
      <trkpt lat="44.23017" lon="6.64336">
        <ele>1786.3</ele>
        <time>2022-10-16T11:32:27Z</time>
      </trkpt>
      <trkpt lat="44.23026" lon="6.64331">
        <ele>1785.3</ele>
        <time>2022-10-16T11:32:38Z</time>
      </trkpt>
      <trkpt lat="44.23034" lon="6.64325">
        <ele>1781.2</ele>
        <time>2022-10-16T11:32:57Z</time>
      </trkpt>
      <trkpt lat="44.23044" lon="6.64328">
        <ele>1777.7</ele>
        <time>2022-10-16T11:33:10Z</time>
      </trkpt>
      <trkpt lat="44.23053" lon="6.64329">
        <ele>1775.4</ele>
        <time>2022-10-16T11:33:20Z</time>
      </trkpt>
      <trkpt lat="44.23063" lon="6.64331">
        <ele>1773</ele>
        <time>2022-10-16T11:33:31Z</time>
      </trkpt>
      <trkpt lat="44.23072" lon="6.64325">
        <ele>1771.8</ele>
        <time>2022-10-16T11:33:38Z</time>
      </trkpt>
      <trkpt lat="44.23077" lon="6.64312">
        <ele>1770.5</ele>
        <time>2022-10-16T11:33:46Z</time>
      </trkpt>
      <trkpt lat="44.23075" lon="6.643">
        <ele>1769.4</ele>
        <time>2022-10-16T11:33:54Z</time>
      </trkpt>
      <trkpt lat="44.2307" lon="6.64288">
        <ele>1768.7</ele>
        <time>2022-10-16T11:34:05Z</time>
      </trkpt>
      <trkpt lat="44.23067" lon="6.64276">
        <ele>1767.5</ele>
        <time>2022-10-16T11:34:16Z</time>
      </trkpt>
      <trkpt lat="44.23066" lon="6.64263">
        <ele>1765.2</ele>
        <time>2022-10-16T11:34:29Z</time>
      </trkpt>
      <trkpt lat="44.23057" lon="6.64258">
        <ele>1763.3</ele>
        <time>2022-10-16T11:34:39Z</time>
      </trkpt>
      <trkpt lat="44.23052" lon="6.64248">
        <ele>1758</ele>
        <time>2022-10-16T11:35:16Z</time>
      </trkpt>
      <trkpt lat="44.23054" lon="6.64235">
        <ele>1752.3</ele>
        <time>2022-10-16T11:35:50Z</time>
      </trkpt>
      <trkpt lat="44.23056" lon="6.64222">
        <ele>1747.5</ele>
        <time>2022-10-16T11:36:20Z</time>
      </trkpt>
      <trkpt lat="44.23062" lon="6.64213">
        <ele>1745.8</ele>
        <time>2022-10-16T11:36:31Z</time>
      </trkpt>
      <trkpt lat="44.2307" lon="6.64206">
        <ele>1744.5</ele>
        <time>2022-10-16T11:36:41Z</time>
      </trkpt>
      <trkpt lat="44.23078" lon="6.64201">
        <ele>1743</ele>
        <time>2022-10-16T11:36:54Z</time>
      </trkpt>
      <trkpt lat="44.23087" lon="6.64205">
        <ele>1740.6</ele>
        <time>2022-10-16T11:37:08Z</time>
      </trkpt>
      <trkpt lat="44.23097" lon="6.64207">
        <ele>1738.7</ele>
        <time>2022-10-16T11:37:21Z</time>
      </trkpt>
      <trkpt lat="44.23106" lon="6.64211">
        <ele>1736.7</ele>
        <time>2022-10-16T11:37:33Z</time>
      </trkpt>
      <trkpt lat="44.23114" lon="6.64216">
        <ele>1734.6</ele>
        <time>2022-10-16T11:37:45Z</time>
      </trkpt>
      <trkpt lat="44.23122" lon="6.64223">
        <ele>1732.9</ele>
        <time>2022-10-16T11:37:57Z</time>
      </trkpt>
      <trkpt lat="44.23126" lon="6.64235">
        <ele>1730.6</ele>
        <time>2022-10-16T11:38:14Z</time>
      </trkpt>
      <trkpt lat="44.23135" lon="6.64235">
        <ele>1730</ele>
        <time>2022-10-16T11:38:24Z</time>
      </trkpt>
      <trkpt lat="44.23144" lon="6.64241">
        <ele>1730.8</ele>
        <time>2022-10-16T11:38:35Z</time>
      </trkpt>
      <trkpt lat="44.23152" lon="6.64247">
        <ele>1732</ele>
        <time>2022-10-16T11:38:46Z</time>
      </trkpt>
      <trkpt lat="44.23159" lon="6.64255">
        <ele>1733.7</ele>
        <time>2022-10-16T11:38:57Z</time>
      </trkpt>
      <trkpt lat="44.23168" lon="6.64261">
        <ele>1735.6</ele>
        <time>2022-10-16T11:39:12Z</time>
      </trkpt>
      <trkpt lat="44.23175" lon="6.6427">
        <ele>1738.4</ele>
        <time>2022-10-16T11:39:26Z</time>
      </trkpt>
      <trkpt lat="44.2318" lon="6.64281">
        <ele>1740.1</ele>
        <time>2022-10-16T11:39:38Z</time>
      </trkpt>
      <trkpt lat="44.23184" lon="6.64293">
        <ele>1741.6</ele>
        <time>2022-10-16T11:39:49Z</time>
      </trkpt>
      <trkpt lat="44.23187" lon="6.64305">
        <ele>1742.7</ele>
        <time>2022-10-16T11:40:07Z</time>
      </trkpt>
      <trkpt lat="44.23189" lon="6.64319">
        <ele>1744.7</ele>
        <time>2022-10-16T11:40:22Z</time>
      </trkpt>
      <trkpt lat="44.23192" lon="6.64331">
        <ele>1745.6</ele>
        <time>2022-10-16T11:40:33Z</time>
      </trkpt>
      <trkpt lat="44.23194" lon="6.64343">
        <ele>1747.2</ele>
        <time>2022-10-16T11:40:43Z</time>
      </trkpt>
      <trkpt lat="44.23196" lon="6.64357">
        <ele>1748.9</ele>
        <time>2022-10-16T11:40:57Z</time>
      </trkpt>
      <trkpt lat="44.23198" lon="6.6437">
        <ele>1751.5</ele>
        <time>2022-10-16T11:41:13Z</time>
      </trkpt>
      <trkpt lat="44.23203" lon="6.64381">
        <ele>1753.7</ele>
        <time>2022-10-16T11:41:24Z</time>
      </trkpt>
      <trkpt lat="44.23212" lon="6.64387">
        <ele>1755</ele>
        <time>2022-10-16T11:41:34Z</time>
      </trkpt>
      <trkpt lat="44.23218" lon="6.64398">
        <ele>1756.3</ele>
        <time>2022-10-16T11:41:49Z</time>
      </trkpt>
      <trkpt lat="44.23211" lon="6.64407">
        <ele>1759.2</ele>
        <time>2022-10-16T11:42:25Z</time>
      </trkpt>
      <trkpt lat="44.23212" lon="6.6442">
        <ele>1760.4</ele>
        <time>2022-10-16T11:44:33Z</time>
      </trkpt>
      <trkpt lat="44.23219" lon="6.64429">
        <ele>1761.8</ele>
        <time>2022-10-16T11:44:47Z</time>
      </trkpt>
      <trkpt lat="44.23227" lon="6.64438">
        <ele>1761.7</ele>
        <time>2022-10-16T11:44:56Z</time>
      </trkpt>
      <trkpt lat="44.23232" lon="6.6445">
        <ele>1761.4</ele>
        <time>2022-10-16T11:45:05Z</time>
      </trkpt>
      <trkpt lat="44.23237" lon="6.64461">
        <ele>1761.2</ele>
        <time>2022-10-16T11:45:14Z</time>
      </trkpt>
      <trkpt lat="44.23242" lon="6.64472">
        <ele>1761.4</ele>
        <time>2022-10-16T11:45:23Z</time>
      </trkpt>
      <trkpt lat="44.23248" lon="6.64482">
        <ele>1761.3</ele>
        <time>2022-10-16T11:45:33Z</time>
      </trkpt>
      <trkpt lat="44.23254" lon="6.64494">
        <ele>1761.1</ele>
        <time>2022-10-16T11:45:43Z</time>
      </trkpt>
      <trkpt lat="44.23261" lon="6.64502">
        <ele>1760.7</ele>
        <time>2022-10-16T11:45:55Z</time>
      </trkpt>
      <trkpt lat="44.23266" lon="6.64513">
        <ele>1761.2</ele>
        <time>2022-10-16T11:46:08Z</time>
      </trkpt>
      <trkpt lat="44.23272" lon="6.64523">
        <ele>1761.6</ele>
        <time>2022-10-16T11:46:16Z</time>
      </trkpt>
      <trkpt lat="44.2328" lon="6.6453">
        <ele>1761.1</ele>
        <time>2022-10-16T11:46:25Z</time>
      </trkpt>
      <trkpt lat="44.23286" lon="6.64539">
        <ele>1761.5</ele>
        <time>2022-10-16T11:46:33Z</time>
      </trkpt>
      <trkpt lat="44.23295" lon="6.64545">
        <ele>1761.7</ele>
        <time>2022-10-16T11:46:44Z</time>
      </trkpt>
      <trkpt lat="44.23303" lon="6.6455">
        <ele>1761.6</ele>
        <time>2022-10-16T11:46:51Z</time>
      </trkpt>
      <trkpt lat="44.23312" lon="6.64556">
        <ele>1761.2</ele>
        <time>2022-10-16T11:46:59Z</time>
      </trkpt>
      <trkpt lat="44.2332" lon="6.64562">
        <ele>1760.6</ele>
        <time>2022-10-16T11:47:07Z</time>
      </trkpt>
      <trkpt lat="44.23328" lon="6.64569">
        <ele>1761.1</ele>
        <time>2022-10-16T11:47:16Z</time>
      </trkpt>
      <trkpt lat="44.23336" lon="6.64577">
        <ele>1763.2</ele>
        <time>2022-10-16T11:47:26Z</time>
      </trkpt>
      <trkpt lat="44.23343" lon="6.64586">
        <ele>1763.9</ele>
        <time>2022-10-16T11:47:35Z</time>
      </trkpt>
      <trkpt lat="44.23351" lon="6.64593">
        <ele>1762.8</ele>
        <time>2022-10-16T11:47:44Z</time>
      </trkpt>
      <trkpt lat="44.23359" lon="6.646">
        <ele>1761.8</ele>
        <time>2022-10-16T11:47:53Z</time>
      </trkpt>
      <trkpt lat="44.23368" lon="6.64606">
        <ele>1760.5</ele>
        <time>2022-10-16T11:48:03Z</time>
      </trkpt>
      <trkpt lat="44.23375" lon="6.64614">
        <ele>1758.3</ele>
        <time>2022-10-16T11:48:17Z</time>
      </trkpt>
      <trkpt lat="44.23381" lon="6.64625">
        <ele>1756</ele>
        <time>2022-10-16T11:48:27Z</time>
      </trkpt>
      <trkpt lat="44.23388" lon="6.64634">
        <ele>1755.4</ele>
        <time>2022-10-16T11:48:35Z</time>
      </trkpt>
      <trkpt lat="44.23394" lon="6.64643">
        <ele>1755.2</ele>
        <time>2022-10-16T11:48:43Z</time>
      </trkpt>
      <trkpt lat="44.23401" lon="6.64654">
        <ele>1754.8</ele>
        <time>2022-10-16T11:48:52Z</time>
      </trkpt>
      <trkpt lat="44.23405" lon="6.64666">
        <ele>1754.2</ele>
        <time>2022-10-16T11:49:00Z</time>
      </trkpt>
      <trkpt lat="44.23411" lon="6.64676">
        <ele>1754.1</ele>
        <time>2022-10-16T11:49:09Z</time>
      </trkpt>
      <trkpt lat="44.23417" lon="6.64685">
        <ele>1754</ele>
        <time>2022-10-16T11:49:17Z</time>
      </trkpt>
      <trkpt lat="44.23424" lon="6.64695">
        <ele>1753.8</ele>
        <time>2022-10-16T11:49:25Z</time>
      </trkpt>
      <trkpt lat="44.2343" lon="6.64704">
        <ele>1753.1</ele>
        <time>2022-10-16T11:49:34Z</time>
      </trkpt>
      <trkpt lat="44.23438" lon="6.64712">
        <ele>1752.4</ele>
        <time>2022-10-16T11:49:44Z</time>
      </trkpt>
      <trkpt lat="44.23445" lon="6.64721">
        <ele>1750.7</ele>
        <time>2022-10-16T11:49:54Z</time>
      </trkpt>
      <trkpt lat="44.23451" lon="6.64732">
        <ele>1749</ele>
        <time>2022-10-16T11:50:06Z</time>
      </trkpt>
      <trkpt lat="44.23459" lon="6.6474">
        <ele>1747.8</ele>
        <time>2022-10-16T11:50:15Z</time>
      </trkpt>
      <trkpt lat="44.23463" lon="6.64751">
        <ele>1746.6</ele>
        <time>2022-10-16T11:50:28Z</time>
      </trkpt>
      <trkpt lat="44.23472" lon="6.64752">
        <ele>1743.7</ele>
        <time>2022-10-16T11:50:45Z</time>
      </trkpt>
      <trkpt lat="44.23479" lon="6.6476">
        <ele>1741</ele>
        <time>2022-10-16T11:51:39Z</time>
      </trkpt>
      <trkpt lat="44.23477" lon="6.64772">
        <ele>1738.3</ele>
        <time>2022-10-16T11:51:56Z</time>
      </trkpt>
      <trkpt lat="44.23486" lon="6.64766">
        <ele>1734.6</ele>
        <time>2022-10-16T11:52:19Z</time>
      </trkpt>
      <trkpt lat="44.23493" lon="6.64759">
        <ele>1730.8</ele>
        <time>2022-10-16T11:52:43Z</time>
      </trkpt>
      <trkpt lat="44.23502" lon="6.64753">
        <ele>1727.3</ele>
        <time>2022-10-16T11:52:59Z</time>
      </trkpt>
      <trkpt lat="44.23509" lon="6.64744">
        <ele>1725.4</ele>
        <time>2022-10-16T11:53:07Z</time>
      </trkpt>
      <trkpt lat="44.23516" lon="6.64735">
        <ele>1724.4</ele>
        <time>2022-10-16T11:53:16Z</time>
      </trkpt>
      <trkpt lat="44.23514" lon="6.64748">
        <ele>1717.9</ele>
        <time>2022-10-16T11:53:50Z</time>
      </trkpt>
      <trkpt lat="44.23517" lon="6.6476">
        <ele>1711.6</ele>
        <time>2022-10-16T11:54:23Z</time>
      </trkpt>
      <trkpt lat="44.23515" lon="6.64773">
        <ele>1708.1</ele>
        <time>2022-10-16T11:54:39Z</time>
      </trkpt>
      <trkpt lat="44.23518" lon="6.64785">
        <ele>1704.2</ele>
        <time>2022-10-16T11:55:01Z</time>
      </trkpt>
      <trkpt lat="44.23527" lon="6.64786">
        <ele>1702.6</ele>
        <time>2022-10-16T11:55:12Z</time>
      </trkpt>
      <trkpt lat="44.23526" lon="6.648">
        <ele>1693</ele>
        <time>2022-10-16T11:55:54Z</time>
      </trkpt>
      <trkpt lat="44.23519" lon="6.64808">
        <ele>1690.3</ele>
        <time>2022-10-16T11:56:06Z</time>
      </trkpt>
      <trkpt lat="44.23511" lon="6.64815">
        <ele>1690.3</ele>
        <time>2022-10-16T11:56:15Z</time>
      </trkpt>
      <trkpt lat="44.23509" lon="6.64827">
        <ele>1688.1</ele>
        <time>2022-10-16T11:56:30Z</time>
      </trkpt>
      <trkpt lat="44.23515" lon="6.64836">
        <ele>1683.4</ele>
        <time>2022-10-16T11:56:52Z</time>
      </trkpt>
      <trkpt lat="44.23525" lon="6.64833">
        <ele>1680.4</ele>
        <time>2022-10-16T11:57:05Z</time>
      </trkpt>
      <trkpt lat="44.23533" lon="6.64826">
        <ele>1678.1</ele>
        <time>2022-10-16T11:57:17Z</time>
      </trkpt>
      <trkpt lat="44.23542" lon="6.64825">
        <ele>1676.4</ele>
        <time>2022-10-16T11:57:29Z</time>
      </trkpt>
      <trkpt lat="44.23551" lon="6.64821">
        <ele>1674.7</ele>
        <time>2022-10-16T11:57:40Z</time>
      </trkpt>
      <trkpt lat="44.2356" lon="6.6482">
        <ele>1672.5</ele>
        <time>2022-10-16T11:57:52Z</time>
      </trkpt>
      <trkpt lat="44.23569" lon="6.64824">
        <ele>1668.6</ele>
        <time>2022-10-16T11:58:30Z</time>
      </trkpt>
      <trkpt lat="44.23578" lon="6.64827">
        <ele>1667.6</ele>
        <time>2022-10-16T11:58:55Z</time>
      </trkpt>
      <trkpt lat="44.23578" lon="6.64839">
        <ele>1668.3</ele>
        <time>2022-10-16T11:59:12Z</time>
      </trkpt>
      <trkpt lat="44.23587" lon="6.64839">
        <ele>1671.6</ele>
        <time>2022-10-16T11:59:36Z</time>
      </trkpt>
      <trkpt lat="44.23594" lon="6.6483">
        <ele>1673.1</ele>
        <time>2022-10-16T11:59:51Z</time>
      </trkpt>
      <trkpt lat="44.23599" lon="6.64819">
        <ele>1674.9</ele>
        <time>2022-10-16T12:00:05Z</time>
      </trkpt>
      <trkpt lat="44.23608" lon="6.64815">
        <ele>1678.3</ele>
        <time>2022-10-16T12:00:31Z</time>
      </trkpt>
      <trkpt lat="44.2361" lon="6.64802">
        <ele>1677.9</ele>
        <time>2022-10-16T12:00:40Z</time>
      </trkpt>
      <trkpt lat="44.23612" lon="6.6479">
        <ele>1677.6</ele>
        <time>2022-10-16T12:00:50Z</time>
      </trkpt>
      <trkpt lat="44.23614" lon="6.64778">
        <ele>1677</ele>
        <time>2022-10-16T12:01:01Z</time>
      </trkpt>
      <trkpt lat="44.23618" lon="6.6479">
        <ele>1678.5</ele>
        <time>2022-10-16T12:01:55Z</time>
      </trkpt>
      <trkpt lat="44.23622" lon="6.64802">
        <ele>1679.7</ele>
        <time>2022-10-16T12:02:06Z</time>
      </trkpt>
      <trkpt lat="44.23623" lon="6.64815">
        <ele>1681.5</ele>
        <time>2022-10-16T12:02:19Z</time>
      </trkpt>
      <trkpt lat="44.23626" lon="6.64827">
        <ele>1683</ele>
        <time>2022-10-16T12:10:45Z</time>
      </trkpt>
      <trkpt lat="44.23636" lon="6.64828">
        <ele>1684.9</ele>
        <time>2022-10-16T12:14:34Z</time>
      </trkpt>
      <trkpt lat="44.23645" lon="6.64829">
        <ele>1688</ele>
        <time>2022-10-16T12:14:53Z</time>
      </trkpt>
      <trkpt lat="44.23652" lon="6.64837">
        <ele>1691.5</ele>
        <time>2022-10-16T12:15:09Z</time>
      </trkpt>
      <trkpt lat="44.23658" lon="6.64846">
        <ele>1695.1</ele>
        <time>2022-10-16T12:15:29Z</time>
      </trkpt>
      <trkpt lat="44.23665" lon="6.64856">
        <ele>1697.1</ele>
        <time>2022-10-16T12:16:02Z</time>
      </trkpt>
      <trkpt lat="44.23669" lon="6.64843">
        <ele>1696.2</ele>
        <time>2022-10-16T12:16:20Z</time>
      </trkpt>
      <trkpt lat="44.23672" lon="6.64831">
        <ele>1694.8</ele>
        <time>2022-10-16T12:16:32Z</time>
      </trkpt>
      <trkpt lat="44.23682" lon="6.64829">
        <ele>1695.9</ele>
        <time>2022-10-16T12:16:47Z</time>
      </trkpt>
      <trkpt lat="44.2369" lon="6.64824">
        <ele>1698.5</ele>
        <time>2022-10-16T12:16:58Z</time>
      </trkpt>
      <trkpt lat="44.23698" lon="6.64832">
        <ele>1701.9</ele>
        <time>2022-10-16T12:17:11Z</time>
      </trkpt>
      <trkpt lat="44.23706" lon="6.64823">
        <ele>1703.2</ele>
        <time>2022-10-16T12:17:18Z</time>
      </trkpt>
      <trkpt lat="44.23701" lon="6.64811">
        <ele>1702.5</ele>
        <time>2022-10-16T12:17:39Z</time>
      </trkpt>
      <trkpt lat="44.23695" lon="6.64803">
        <ele>1700.2</ele>
        <time>2022-10-16T12:17:49Z</time>
      </trkpt>
      <trkpt lat="44.23689" lon="6.64792">
        <ele>1696.7</ele>
        <time>2022-10-16T12:18:00Z</time>
      </trkpt>
      <trkpt lat="44.23698" lon="6.64791">
        <ele>1698.2</ele>
        <time>2022-10-16T12:18:43Z</time>
      </trkpt>
      <trkpt lat="44.23708" lon="6.64791">
        <ele>1699.7</ele>
        <time>2022-10-16T12:18:52Z</time>
      </trkpt>
      <trkpt lat="44.23717" lon="6.64787">
        <ele>1701.7</ele>
        <time>2022-10-16T12:19:00Z</time>
      </trkpt>
      <trkpt lat="44.23725" lon="6.6478">
        <ele>1703.5</ele>
        <time>2022-10-16T12:19:09Z</time>
      </trkpt>
      <trkpt lat="44.23733" lon="6.64773">
        <ele>1703.1</ele>
        <time>2022-10-16T12:19:18Z</time>
      </trkpt>
      <trkpt lat="44.2374" lon="6.64765">
        <ele>1703.9</ele>
        <time>2022-10-16T12:19:25Z</time>
      </trkpt>
      <trkpt lat="44.23748" lon="6.64755">
        <ele>1704.5</ele>
        <time>2022-10-16T12:19:33Z</time>
      </trkpt>
      <trkpt lat="44.23753" lon="6.64744">
        <ele>1704.2</ele>
        <time>2022-10-16T12:19:41Z</time>
      </trkpt>
      <trkpt lat="44.23757" lon="6.64732">
        <ele>1703.3</ele>
        <time>2022-10-16T12:19:49Z</time>
      </trkpt>
      <trkpt lat="44.23756" lon="6.64719">
        <ele>1701.5</ele>
        <time>2022-10-16T12:19:57Z</time>
      </trkpt>
      <trkpt lat="44.23753" lon="6.64706">
        <ele>1700.1</ele>
        <time>2022-10-16T12:20:05Z</time>
      </trkpt>
      <trkpt lat="44.23759" lon="6.64697">
        <ele>1698.2</ele>
        <time>2022-10-16T12:20:13Z</time>
      </trkpt>
      <trkpt lat="44.23766" lon="6.64688">
        <ele>1697.3</ele>
        <time>2022-10-16T12:20:21Z</time>
      </trkpt>
      <trkpt lat="44.23775" lon="6.64683">
        <ele>1696.6</ele>
        <time>2022-10-16T12:20:28Z</time>
      </trkpt>
      <trkpt lat="44.23784" lon="6.64678">
        <ele>1696.2</ele>
        <time>2022-10-16T12:20:36Z</time>
      </trkpt>
      <trkpt lat="44.23794" lon="6.64678">
        <ele>1696</ele>
        <time>2022-10-16T12:20:43Z</time>
      </trkpt>
      <trkpt lat="44.23803" lon="6.64677">
        <ele>1696.1</ele>
        <time>2022-10-16T12:20:51Z</time>
      </trkpt>
      <trkpt lat="44.23812" lon="6.64674">
        <ele>1695.5</ele>
        <time>2022-10-16T12:20:59Z</time>
      </trkpt>
      <trkpt lat="44.2382" lon="6.64666">
        <ele>1695.4</ele>
        <time>2022-10-16T12:21:06Z</time>
      </trkpt>
      <trkpt lat="44.23826" lon="6.64655">
        <ele>1695.1</ele>
        <time>2022-10-16T12:21:13Z</time>
      </trkpt>
      <trkpt lat="44.23833" lon="6.64645">
        <ele>1694.7</ele>
        <time>2022-10-16T12:21:20Z</time>
      </trkpt>
      <trkpt lat="44.2384" lon="6.64635">
        <ele>1694.2</ele>
        <time>2022-10-16T12:21:28Z</time>
      </trkpt>
      <trkpt lat="44.23846" lon="6.64624">
        <ele>1693.7</ele>
        <time>2022-10-16T12:21:36Z</time>
      </trkpt>
      <trkpt lat="44.23853" lon="6.64615">
        <ele>1693.1</ele>
        <time>2022-10-16T12:21:44Z</time>
      </trkpt>
      <trkpt lat="44.2386" lon="6.64604">
        <ele>1692.9</ele>
        <time>2022-10-16T12:21:52Z</time>
      </trkpt>
      <trkpt lat="44.23867" lon="6.64596">
        <ele>1692.4</ele>
        <time>2022-10-16T12:22:03Z</time>
      </trkpt>
      <trkpt lat="44.23877" lon="6.64591">
        <ele>1692.7</ele>
        <time>2022-10-16T12:22:11Z</time>
      </trkpt>
      <trkpt lat="44.23885" lon="6.64583">
        <ele>1693</ele>
        <time>2022-10-16T12:22:19Z</time>
      </trkpt>
      <trkpt lat="44.23891" lon="6.64574">
        <ele>1694.3</ele>
        <time>2022-10-16T12:22:27Z</time>
      </trkpt>
      <trkpt lat="44.23898" lon="6.64565">
        <ele>1695.7</ele>
        <time>2022-10-16T12:22:35Z</time>
      </trkpt>
      <trkpt lat="44.23906" lon="6.64557">
        <ele>1697.2</ele>
        <time>2022-10-16T12:22:43Z</time>
      </trkpt>
      <trkpt lat="44.23914" lon="6.64551">
        <ele>1699.7</ele>
        <time>2022-10-16T12:22:55Z</time>
      </trkpt>
      <trkpt lat="44.2392" lon="6.64561">
        <ele>1701.8</ele>
        <time>2022-10-16T12:23:10Z</time>
      </trkpt>
      <trkpt lat="44.23924" lon="6.64572">
        <ele>1703.4</ele>
        <time>2022-10-16T12:23:20Z</time>
      </trkpt>
      <trkpt lat="44.23933" lon="6.64578">
        <ele>1705.2</ele>
        <time>2022-10-16T12:23:30Z</time>
      </trkpt>
      <trkpt lat="44.23942" lon="6.64576">
        <ele>1706.1</ele>
        <time>2022-10-16T12:23:39Z</time>
      </trkpt>
      <trkpt lat="44.23951" lon="6.6457">
        <ele>1706.5</ele>
        <time>2022-10-16T12:23:46Z</time>
      </trkpt>
      <trkpt lat="44.23953" lon="6.64562">
        <ele>1706.4</ele>
        <time>2022-10-16T12:24:45Z</time>
      </trkpt>
    </trkseg>
  </trk>
</gpx>